<?xml version="1.0" encoding="UTF-8" standalone="no" ?>
<gpx xmlns="http://www.topografix.com/GPX/1/1" xmlns:xsi="http://www.w3.org/2001/XMLSchema-instance" xsi:schemaLocation="http://www.topografix.com/GPX/1/1 http://www.topografix.com/GPX/1/1/gpx.xsd" version="1.1" creator="VisuGPX - https://www.visugpx.com">
  <metadata>
    <name>Etoile: vallon de la Vache, Mont Julien, vallon de la Figuière, Mordeau</name>
    <desc><![CDATA[Boucle sur le versant sud de l\'Etoile, côté Est]]></desc>
  </metadata>
  <trk>
    <name><![CDATA[101010-Mt-Julien-Figuieres-Mordeau]]></name>
    <trkseg>
      <trkpt lat="43.35155" lon="5.4445">
        <ele>142.629913</ele>
        <time>2010-10-10T08:42:20Z</time>
      </trkpt>
      <trkpt lat="43.35157" lon="5.44475">
        <ele>144.18074</ele>
        <time>2010-10-10T08:42:29Z</time>
      </trkpt>
      <trkpt lat="43.35158" lon="5.44473">
        <ele>144.184143</ele>
        <time>2010-10-10T08:42:31Z</time>
      </trkpt>
      <trkpt lat="43.35155" lon="5.44437">
        <ele>141.862793</ele>
        <time>2010-10-10T08:42:48Z</time>
      </trkpt>
      <trkpt lat="43.35162" lon="5.44455">
        <ele>143.27977</ele>
        <time>2010-10-10T08:44:08Z</time>
      </trkpt>
      <trkpt lat="43.35177" lon="5.4445">
        <ele>143.758499</ele>
        <time>2010-10-10T08:44:28Z</time>
      </trkpt>
      <trkpt lat="43.35195" lon="5.4444">
        <ele>144.45224</ele>
        <time>2010-10-10T08:44:33Z</time>
      </trkpt>
      <trkpt lat="43.35215" lon="5.44428">
        <ele>145.402786</ele>
        <time>2010-10-10T08:44:38Z</time>
      </trkpt>
      <trkpt lat="43.3523" lon="5.44455">
        <ele>148.104706</ele>
        <time>2010-10-10T08:44:45Z</time>
      </trkpt>
      <trkpt lat="43.35237" lon="5.44477">
        <ele>149.769989</ele>
        <time>2010-10-10T08:44:50Z</time>
      </trkpt>
      <trkpt lat="43.35245" lon="5.44522">
        <ele>151.880981</ele>
        <time>2010-10-10T08:44:57Z</time>
      </trkpt>
      <trkpt lat="43.35247" lon="5.44543">
        <ele>152.561768</ele>
        <time>2010-10-10T08:45:01Z</time>
      </trkpt>
      <trkpt lat="43.35252" lon="5.44572">
        <ele>153.171265</ele>
        <time>2010-10-10T08:45:06Z</time>
      </trkpt>
      <trkpt lat="43.3526" lon="5.44598">
        <ele>153.749023</ele>
        <time>2010-10-10T08:45:11Z</time>
      </trkpt>
      <trkpt lat="43.3527" lon="5.44618">
        <ele>153.983856</ele>
        <time>2010-10-10T08:45:16Z</time>
      </trkpt>
      <trkpt lat="43.35277" lon="5.44637">
        <ele>153.720612</ele>
        <time>2010-10-10T08:45:20Z</time>
      </trkpt>
      <trkpt lat="43.35297" lon="5.4469">
        <ele>153.047318</ele>
        <time>2010-10-10T08:45:32Z</time>
      </trkpt>
      <trkpt lat="43.35312" lon="5.44732">
        <ele>152.257675</ele>
        <time>2010-10-10T08:45:41Z</time>
      </trkpt>
      <trkpt lat="43.3532" lon="5.44757">
        <ele>151.768188</ele>
        <time>2010-10-10T08:45:46Z</time>
      </trkpt>
      <trkpt lat="43.35355" lon="5.44858">
        <ele>151.216446</ele>
        <time>2010-10-10T08:46:04Z</time>
      </trkpt>
      <trkpt lat="43.35363" lon="5.44873">
        <ele>151.359985</ele>
        <time>2010-10-10T08:46:07Z</time>
      </trkpt>
      <trkpt lat="43.35382" lon="5.4491">
        <ele>151.791275</ele>
        <time>2010-10-10T08:46:11Z</time>
      </trkpt>
      <trkpt lat="43.35388" lon="5.44935">
        <ele>152.111755</ele>
        <time>2010-10-10T08:46:16Z</time>
      </trkpt>
      <trkpt lat="43.35398" lon="5.44958">
        <ele>152.919266</ele>
        <time>2010-10-10T08:46:20Z</time>
      </trkpt>
      <trkpt lat="43.35412" lon="5.44975">
        <ele>153.792465</ele>
        <time>2010-10-10T08:46:25Z</time>
      </trkpt>
      <trkpt lat="43.35432" lon="5.44997">
        <ele>154.917923</ele>
        <time>2010-10-10T08:46:32Z</time>
      </trkpt>
      <trkpt lat="43.35527" lon="5.45107">
        <ele>158.45755</ele>
        <time>2010-10-10T08:47:05Z</time>
      </trkpt>
      <trkpt lat="43.35565" lon="5.4515">
        <ele>159.560211</ele>
        <time>2010-10-10T08:47:17Z</time>
      </trkpt>
      <trkpt lat="43.35572" lon="5.4517">
        <ele>159.702438</ele>
        <time>2010-10-10T08:47:22Z</time>
      </trkpt>
      <trkpt lat="43.35572" lon="5.452">
        <ele>159.609695</ele>
        <time>2010-10-10T08:47:27Z</time>
      </trkpt>
      <trkpt lat="43.35573" lon="5.4523">
        <ele>159.778809</ele>
        <time>2010-10-10T08:47:31Z</time>
      </trkpt>
      <trkpt lat="43.35587" lon="5.45253">
        <ele>160.86792</ele>
        <time>2010-10-10T08:47:36Z</time>
      </trkpt>
      <trkpt lat="43.35605" lon="5.45283">
        <ele>162.619644</ele>
        <time>2010-10-10T08:47:44Z</time>
      </trkpt>
      <trkpt lat="43.35615" lon="5.45307">
        <ele>163.467316</ele>
        <time>2010-10-10T08:47:48Z</time>
      </trkpt>
      <trkpt lat="43.3564" lon="5.45363">
        <ele>164.502579</ele>
        <time>2010-10-10T08:48:00Z</time>
      </trkpt>
      <trkpt lat="43.35678" lon="5.45447">
        <ele>166.202545</ele>
        <time>2010-10-10T08:48:19Z</time>
      </trkpt>
      <trkpt lat="43.35685" lon="5.45467">
        <ele>166.685959</ele>
        <time>2010-10-10T08:48:23Z</time>
      </trkpt>
      <trkpt lat="43.35693" lon="5.45485">
        <ele>167.277359</ele>
        <time>2010-10-10T08:48:28Z</time>
      </trkpt>
      <trkpt lat="43.35732" lon="5.45565">
        <ele>169.905289</ele>
        <time>2010-10-10T08:48:49Z</time>
      </trkpt>
      <trkpt lat="43.35742" lon="5.45583">
        <ele>170.405228</ele>
        <time>2010-10-10T08:48:54Z</time>
      </trkpt>
      <trkpt lat="43.3575" lon="5.45598">
        <ele>170.927307</ele>
        <time>2010-10-10T08:48:59Z</time>
      </trkpt>
      <trkpt lat="43.35773" lon="5.45637">
        <ele>172.462952</ele>
        <time>2010-10-10T08:49:08Z</time>
      </trkpt>
      <trkpt lat="43.35782" lon="5.4566">
        <ele>172.444412</ele>
        <time>2010-10-10T08:49:13Z</time>
      </trkpt>
      <trkpt lat="43.35788" lon="5.45678">
        <ele>172.530655</ele>
        <time>2010-10-10T08:49:15Z</time>
      </trkpt>
      <trkpt lat="43.358" lon="5.45703">
        <ele>173.315094</ele>
        <time>2010-10-10T08:49:20Z</time>
      </trkpt>
      <trkpt lat="43.35827" lon="5.4577">
        <ele>176.12088</ele>
        <time>2010-10-10T08:49:33Z</time>
      </trkpt>
      <trkpt lat="43.35835" lon="5.45795">
        <ele>176.931213</ele>
        <time>2010-10-10T08:49:38Z</time>
      </trkpt>
      <trkpt lat="43.3584" lon="5.45817">
        <ele>177.221664</ele>
        <time>2010-10-10T08:49:43Z</time>
      </trkpt>
      <trkpt lat="43.35847" lon="5.45843">
        <ele>177.035751</ele>
        <time>2010-10-10T08:49:47Z</time>
      </trkpt>
      <trkpt lat="43.35858" lon="5.45867">
        <ele>177.437897</ele>
        <time>2010-10-10T08:49:52Z</time>
      </trkpt>
      <trkpt lat="43.3587" lon="5.45885">
        <ele>178</ele>
        <time>2010-10-10T08:49:56Z</time>
      </trkpt>
      <trkpt lat="43.3589" lon="5.45917">
        <ele>178.451157</ele>
        <time>2010-10-10T08:50:04Z</time>
      </trkpt>
      <trkpt lat="43.35908" lon="5.45932">
        <ele>179.316223</ele>
        <time>2010-10-10T08:50:09Z</time>
      </trkpt>
      <trkpt lat="43.35933" lon="5.4595">
        <ele>181.116898</ele>
        <time>2010-10-10T08:50:16Z</time>
      </trkpt>
      <trkpt lat="43.35945" lon="5.45972">
        <ele>181.034546</ele>
        <time>2010-10-10T08:50:20Z</time>
      </trkpt>
      <trkpt lat="43.3595" lon="5.45995">
        <ele>180.058182</ele>
        <time>2010-10-10T08:50:24Z</time>
      </trkpt>
      <trkpt lat="43.35928" lon="5.4603">
        <ele>177.398834</ele>
        <time>2010-10-10T08:50:29Z</time>
      </trkpt>
      <trkpt lat="43.35917" lon="5.46045">
        <ele>176.664078</ele>
        <time>2010-10-10T08:50:31Z</time>
      </trkpt>
      <trkpt lat="43.35915" lon="5.46065">
        <ele>176.496292</ele>
        <time>2010-10-10T08:50:36Z</time>
      </trkpt>
      <trkpt lat="43.35927" lon="5.4608">
        <ele>177.203888</ele>
        <time>2010-10-10T08:50:41Z</time>
      </trkpt>
      <trkpt lat="43.35938" lon="5.46098">
        <ele>177.598419</ele>
        <time>2010-10-10T08:50:46Z</time>
      </trkpt>
      <trkpt lat="43.35948" lon="5.46118">
        <ele>177.91571</ele>
        <time>2010-10-10T08:50:50Z</time>
      </trkpt>
      <trkpt lat="43.35958" lon="5.46137">
        <ele>178.445923</ele>
        <time>2010-10-10T08:50:55Z</time>
      </trkpt>
      <trkpt lat="43.35975" lon="5.46168">
        <ele>179.060959</ele>
        <time>2010-10-10T08:51:02Z</time>
      </trkpt>
      <trkpt lat="43.3599" lon="5.46198">
        <ele>179.754654</ele>
        <time>2010-10-10T08:51:10Z</time>
      </trkpt>
      <trkpt lat="43.36003" lon="5.4622">
        <ele>181.170914</ele>
        <time>2010-10-10T08:51:14Z</time>
      </trkpt>
      <trkpt lat="43.36015" lon="5.46238">
        <ele>181.862961</ele>
        <time>2010-10-10T08:51:19Z</time>
      </trkpt>
      <trkpt lat="43.36042" lon="5.4628">
        <ele>184.536713</ele>
        <time>2010-10-10T08:51:28Z</time>
      </trkpt>
      <trkpt lat="43.36065" lon="5.4632">
        <ele>186.14859</ele>
        <time>2010-10-10T08:51:37Z</time>
      </trkpt>
      <trkpt lat="43.3608" lon="5.4634">
        <ele>186.752289</ele>
        <time>2010-10-10T08:51:42Z</time>
      </trkpt>
      <trkpt lat="43.36088" lon="5.46358">
        <ele>187.239655</ele>
        <time>2010-10-10T08:51:47Z</time>
      </trkpt>
      <trkpt lat="43.36082" lon="5.46375">
        <ele>187.245682</ele>
        <time>2010-10-10T08:51:54Z</time>
      </trkpt>
      <trkpt lat="43.3607" lon="5.46392">
        <ele>187.263824</ele>
        <time>2010-10-10T08:51:58Z</time>
      </trkpt>
      <trkpt lat="43.36007" lon="5.46472">
        <ele>186.820114</ele>
        <time>2010-10-10T08:52:17Z</time>
      </trkpt>
      <trkpt lat="43.35928" lon="5.4657">
        <ele>177.408676</ele>
        <time>2010-10-10T08:52:30Z</time>
      </trkpt>
      <trkpt lat="43.35915" lon="5.46602">
        <ele>175.318848</ele>
        <time>2010-10-10T08:52:33Z</time>
      </trkpt>
      <trkpt lat="43.35905" lon="5.4662">
        <ele>174.114319</ele>
        <time>2010-10-10T08:52:35Z</time>
      </trkpt>
      <trkpt lat="43.35895" lon="5.46635">
        <ele>173.941193</ele>
        <time>2010-10-10T08:52:37Z</time>
      </trkpt>
      <trkpt lat="43.35888" lon="5.46658">
        <ele>174.059372</ele>
        <time>2010-10-10T08:52:40Z</time>
      </trkpt>
      <trkpt lat="43.3591" lon="5.46672">
        <ele>175.237457</ele>
        <time>2010-10-10T08:52:45Z</time>
      </trkpt>
      <trkpt lat="43.3593" lon="5.46678">
        <ele>176.48056</ele>
        <time>2010-10-10T08:52:50Z</time>
      </trkpt>
      <trkpt lat="43.35948" lon="5.46687">
        <ele>178.292023</ele>
        <time>2010-10-10T08:52:55Z</time>
      </trkpt>
      <trkpt lat="43.35965" lon="5.46693">
        <ele>179.858154</ele>
        <time>2010-10-10T08:53:00Z</time>
      </trkpt>
      <trkpt lat="43.3597" lon="5.46725">
        <ele>181.014221</ele>
        <time>2010-10-10T08:53:07Z</time>
      </trkpt>
      <trkpt lat="43.35968" lon="5.46748">
        <ele>181.466934</ele>
        <time>2010-10-10T08:53:12Z</time>
      </trkpt>
      <trkpt lat="43.35963" lon="5.46793">
        <ele>184.116776</ele>
        <time>2010-10-10T08:53:22Z</time>
      </trkpt>
      <trkpt lat="43.35962" lon="5.46815">
        <ele>185.493958</ele>
        <time>2010-10-10T08:53:29Z</time>
      </trkpt>
      <trkpt lat="43.3596" lon="5.46838">
        <ele>186.970398</ele>
        <time>2010-10-10T08:53:36Z</time>
      </trkpt>
      <trkpt lat="43.35958" lon="5.46863">
        <ele>188.557175</ele>
        <time>2010-10-10T08:53:45Z</time>
      </trkpt>
      <trkpt lat="43.35955" lon="5.46882">
        <ele>189.13031</ele>
        <time>2010-10-10T08:53:52Z</time>
      </trkpt>
      <trkpt lat="43.35953" lon="5.46905">
        <ele>189.846558</ele>
        <time>2010-10-10T08:54:01Z</time>
      </trkpt>
      <trkpt lat="43.35953" lon="5.46933">
        <ele>190.435135</ele>
        <time>2010-10-10T08:54:11Z</time>
      </trkpt>
      <trkpt lat="43.3595" lon="5.46978">
        <ele>188.878799</ele>
        <time>2010-10-10T08:54:20Z</time>
      </trkpt>
      <trkpt lat="43.35943" lon="5.47125">
        <ele>188.038239</ele>
        <time>2010-10-10T08:54:40Z</time>
      </trkpt>
      <trkpt lat="43.3593" lon="5.47145">
        <ele>187.545456</ele>
        <time>2010-10-10T08:54:44Z</time>
      </trkpt>
      <trkpt lat="43.35928" lon="5.47165">
        <ele>188.284592</ele>
        <time>2010-10-10T08:54:49Z</time>
      </trkpt>
      <trkpt lat="43.35927" lon="5.47192">
        <ele>188.9599</ele>
        <time>2010-10-10T08:54:54Z</time>
      </trkpt>
      <trkpt lat="43.35925" lon="5.47215">
        <ele>189.382904</ele>
        <time>2010-10-10T08:54:58Z</time>
      </trkpt>
      <trkpt lat="43.35927" lon="5.47242">
        <ele>190.030655</ele>
        <time>2010-10-10T08:55:03Z</time>
      </trkpt>
      <trkpt lat="43.35927" lon="5.47293">
        <ele>189.817169</ele>
        <time>2010-10-10T08:55:13Z</time>
      </trkpt>
      <trkpt lat="43.35927" lon="5.47315">
        <ele>188.498627</ele>
        <time>2010-10-10T08:55:15Z</time>
      </trkpt>
      <trkpt lat="43.3592" lon="5.47333">
        <ele>186.871429</ele>
        <time>2010-10-10T08:55:20Z</time>
      </trkpt>
      <trkpt lat="43.359" lon="5.47347">
        <ele>185.503265</ele>
        <time>2010-10-10T08:55:24Z</time>
      </trkpt>
      <trkpt lat="43.35885" lon="5.47358">
        <ele>185.178024</ele>
        <time>2010-10-10T08:55:29Z</time>
      </trkpt>
      <trkpt lat="43.35865" lon="5.47372">
        <ele>184.876419</ele>
        <time>2010-10-10T08:55:36Z</time>
      </trkpt>
      <trkpt lat="43.35843" lon="5.47383">
        <ele>184.174103</ele>
        <time>2010-10-10T08:55:43Z</time>
      </trkpt>
      <trkpt lat="43.35802" lon="5.47407">
        <ele>182.788177</ele>
        <time>2010-10-10T08:55:55Z</time>
      </trkpt>
      <trkpt lat="43.35788" lon="5.47412">
        <ele>182.449112</ele>
        <time>2010-10-10T08:55:57Z</time>
      </trkpt>
      <trkpt lat="43.35772" lon="5.47413">
        <ele>181.905548</ele>
        <time>2010-10-10T08:56:00Z</time>
      </trkpt>
      <trkpt lat="43.35725" lon="5.4742">
        <ele>180.462952</ele>
        <time>2010-10-10T08:56:04Z</time>
      </trkpt>
      <trkpt lat="43.35708" lon="5.47425">
        <ele>180.13739</ele>
        <time>2010-10-10T08:56:07Z</time>
      </trkpt>
      <trkpt lat="43.35637" lon="5.47445">
        <ele>176.877411</ele>
        <time>2010-10-10T08:56:16Z</time>
      </trkpt>
      <trkpt lat="43.35607" lon="5.47423">
        <ele>172.636566</ele>
        <time>2010-10-10T08:56:21Z</time>
      </trkpt>
      <trkpt lat="43.35593" lon="5.47413">
        <ele>170.513443</ele>
        <time>2010-10-10T08:56:23Z</time>
      </trkpt>
      <trkpt lat="43.35577" lon="5.47413">
        <ele>168.287811</ele>
        <time>2010-10-10T08:56:26Z</time>
      </trkpt>
      <trkpt lat="43.3555" lon="5.47417">
        <ele>165.177872</ele>
        <time>2010-10-10T08:56:28Z</time>
      </trkpt>
      <trkpt lat="43.35498" lon="5.47425">
        <ele>161.600494</ele>
        <time>2010-10-10T08:56:33Z</time>
      </trkpt>
      <trkpt lat="43.3548" lon="5.47433">
        <ele>160.828903</ele>
        <time>2010-10-10T08:56:35Z</time>
      </trkpt>
      <trkpt lat="43.35452" lon="5.47443">
        <ele>160.119812</ele>
        <time>2010-10-10T08:56:38Z</time>
      </trkpt>
      <trkpt lat="43.35437" lon="5.47457">
        <ele>158.576828</ele>
        <time>2010-10-10T08:56:40Z</time>
      </trkpt>
      <trkpt lat="43.35423" lon="5.4747">
        <ele>157.280853</ele>
        <time>2010-10-10T08:56:42Z</time>
      </trkpt>
      <trkpt lat="43.35412" lon="5.47483">
        <ele>156.359268</ele>
        <time>2010-10-10T08:56:45Z</time>
      </trkpt>
      <trkpt lat="43.35395" lon="5.47503">
        <ele>155.28566</ele>
        <time>2010-10-10T08:56:47Z</time>
      </trkpt>
      <trkpt lat="43.35382" lon="5.47512">
        <ele>154.412308</ele>
        <time>2010-10-10T08:56:49Z</time>
      </trkpt>
      <trkpt lat="43.35327" lon="5.4754">
        <ele>152.024734</ele>
        <time>2010-10-10T08:56:57Z</time>
      </trkpt>
      <trkpt lat="43.3531" lon="5.4755">
        <ele>151.473495</ele>
        <time>2010-10-10T08:56:59Z</time>
      </trkpt>
      <trkpt lat="43.35293" lon="5.4756">
        <ele>150.922256</ele>
        <time>2010-10-10T08:57:01Z</time>
      </trkpt>
      <trkpt lat="43.3527" lon="5.4758">
        <ele>150.255676</ele>
        <time>2010-10-10T08:57:04Z</time>
      </trkpt>
      <trkpt lat="43.35253" lon="5.47588">
        <ele>149.675232</ele>
        <time>2010-10-10T08:57:06Z</time>
      </trkpt>
      <trkpt lat="43.35235" lon="5.4759">
        <ele>148.905304</ele>
        <time>2010-10-10T08:57:08Z</time>
      </trkpt>
      <trkpt lat="43.35195" lon="5.47595">
        <ele>147.249359</ele>
        <time>2010-10-10T08:57:13Z</time>
      </trkpt>
      <trkpt lat="43.35188" lon="5.47613">
        <ele>147.28006</ele>
        <time>2010-10-10T08:57:21Z</time>
      </trkpt>
      <trkpt lat="43.35188" lon="5.47633">
        <ele>147.597977</ele>
        <time>2010-10-10T08:57:23Z</time>
      </trkpt>
      <trkpt lat="43.35192" lon="5.47715">
        <ele>148.829926</ele>
        <time>2010-10-10T08:57:35Z</time>
      </trkpt>
      <trkpt lat="43.35195" lon="5.4776">
        <ele>149.660568</ele>
        <time>2010-10-10T08:57:42Z</time>
      </trkpt>
      <trkpt lat="43.35202" lon="5.47887">
        <ele>151.94072</ele>
        <time>2010-10-10T08:58:01Z</time>
      </trkpt>
      <trkpt lat="43.35205" lon="5.4796">
        <ele>153.596725</ele>
        <time>2010-10-10T08:58:13Z</time>
      </trkpt>
      <trkpt lat="43.35208" lon="5.47978">
        <ele>154.283813</ele>
        <time>2010-10-10T08:58:15Z</time>
      </trkpt>
      <trkpt lat="43.35218" lon="5.48022">
        <ele>155.575043</ele>
        <time>2010-10-10T08:58:22Z</time>
      </trkpt>
      <trkpt lat="43.35247" lon="5.48133">
        <ele>157.024689</ele>
        <time>2010-10-10T08:58:41Z</time>
      </trkpt>
      <trkpt lat="43.35273" lon="5.48252">
        <ele>156.506607</ele>
        <time>2010-10-10T08:58:59Z</time>
      </trkpt>
      <trkpt lat="43.35283" lon="5.48292">
        <ele>156.786316</ele>
        <time>2010-10-10T08:59:06Z</time>
      </trkpt>
      <trkpt lat="43.35288" lon="5.48315">
        <ele>157.103806</ele>
        <time>2010-10-10T08:59:10Z</time>
      </trkpt>
      <trkpt lat="43.353" lon="5.48342">
        <ele>157.811111</ele>
        <time>2010-10-10T08:59:15Z</time>
      </trkpt>
      <trkpt lat="43.35312" lon="5.48375">
        <ele>158.474457</ele>
        <time>2010-10-10T08:59:22Z</time>
      </trkpt>
      <trkpt lat="43.3532" lon="5.48392">
        <ele>158.670609</ele>
        <time>2010-10-10T08:59:27Z</time>
      </trkpt>
      <trkpt lat="43.35335" lon="5.48408">
        <ele>159.012726</ele>
        <time>2010-10-10T08:59:31Z</time>
      </trkpt>
      <trkpt lat="43.35345" lon="5.48423">
        <ele>159.093246</ele>
        <time>2010-10-10T08:59:36Z</time>
      </trkpt>
      <trkpt lat="43.35358" lon="5.48433">
        <ele>159.042053</ele>
        <time>2010-10-10T09:00:44Z</time>
      </trkpt>
      <trkpt lat="43.35372" lon="5.48443">
        <ele>159</ele>
        <time>2010-10-10T09:00:49Z</time>
      </trkpt>
      <trkpt lat="43.3539" lon="5.48453">
        <ele>159</ele>
        <time>2010-10-10T09:00:55Z</time>
      </trkpt>
      <trkpt lat="43.35405" lon="5.48457">
        <ele>159</ele>
        <time>2010-10-10T09:00:59Z</time>
      </trkpt>
      <trkpt lat="43.35417" lon="5.48468">
        <ele>159</ele>
        <time>2010-10-10T09:01:03Z</time>
      </trkpt>
      <trkpt lat="43.35428" lon="5.48492">
        <ele>158.877457</ele>
        <time>2010-10-10T09:01:08Z</time>
      </trkpt>
      <trkpt lat="43.35442" lon="5.4851">
        <ele>158.678406</ele>
        <time>2010-10-10T09:01:13Z</time>
      </trkpt>
      <trkpt lat="43.3545" lon="5.4853">
        <ele>158.797211</ele>
        <time>2010-10-10T09:01:15Z</time>
      </trkpt>
      <trkpt lat="43.35468" lon="5.48575">
        <ele>158.925842</ele>
        <time>2010-10-10T09:01:22Z</time>
      </trkpt>
      <trkpt lat="43.35485" lon="5.48593">
        <ele>158.738693</ele>
        <time>2010-10-10T09:01:27Z</time>
      </trkpt>
      <trkpt lat="43.35508" lon="5.4861">
        <ele>158.694427</ele>
        <time>2010-10-10T09:01:31Z</time>
      </trkpt>
      <trkpt lat="43.35555" lon="5.48645">
        <ele>158.221405</ele>
        <time>2010-10-10T09:01:42Z</time>
      </trkpt>
      <trkpt lat="43.3557" lon="5.48653">
        <ele>158.343262</ele>
        <time>2010-10-10T09:01:45Z</time>
      </trkpt>
      <trkpt lat="43.35585" lon="5.48663">
        <ele>158.492172</ele>
        <time>2010-10-10T09:01:50Z</time>
      </trkpt>
      <trkpt lat="43.35597" lon="5.48687">
        <ele>158.862518</ele>
        <time>2010-10-10T09:01:55Z</time>
      </trkpt>
      <trkpt lat="43.35617" lon="5.48702">
        <ele>159.085983</ele>
        <time>2010-10-10T09:01:59Z</time>
      </trkpt>
      <trkpt lat="43.35633" lon="5.48723">
        <ele>159.422714</ele>
        <time>2010-10-10T09:02:04Z</time>
      </trkpt>
      <trkpt lat="43.35657" lon="5.48752">
        <ele>159.915878</ele>
        <time>2010-10-10T09:02:11Z</time>
      </trkpt>
      <trkpt lat="43.35703" lon="5.48813">
        <ele>160.168427</ele>
        <time>2010-10-10T09:02:28Z</time>
      </trkpt>
      <trkpt lat="43.35708" lon="5.48837">
        <ele>160</ele>
        <time>2010-10-10T09:02:33Z</time>
      </trkpt>
      <trkpt lat="43.35715" lon="5.48853">
        <ele>160</ele>
        <time>2010-10-10T09:02:38Z</time>
      </trkpt>
      <trkpt lat="43.35722" lon="5.48877">
        <ele>160</ele>
        <time>2010-10-10T09:02:42Z</time>
      </trkpt>
      <trkpt lat="43.35725" lon="5.48902">
        <ele>160.027267</ele>
        <time>2010-10-10T09:02:47Z</time>
      </trkpt>
      <trkpt lat="43.3573" lon="5.4892">
        <ele>160.396667</ele>
        <time>2010-10-10T09:02:51Z</time>
      </trkpt>
      <trkpt lat="43.35733" lon="5.4894">
        <ele>160.658112</ele>
        <time>2010-10-10T09:02:56Z</time>
      </trkpt>
      <trkpt lat="43.35738" lon="5.48963">
        <ele>161.252518</ele>
        <time>2010-10-10T09:03:01Z</time>
      </trkpt>
      <trkpt lat="43.35762" lon="5.49062">
        <ele>162.455383</ele>
        <time>2010-10-10T09:03:20Z</time>
      </trkpt>
      <trkpt lat="43.3577" lon="5.49085">
        <ele>163.911682</ele>
        <time>2010-10-10T09:03:24Z</time>
      </trkpt>
      <trkpt lat="43.35782" lon="5.49108">
        <ele>167.152451</ele>
        <time>2010-10-10T09:03:29Z</time>
      </trkpt>
      <trkpt lat="43.35808" lon="5.49168">
        <ele>171.457321</ele>
        <time>2010-10-10T09:03:41Z</time>
      </trkpt>
      <trkpt lat="43.35872" lon="5.49305">
        <ele>174.187439</ele>
        <time>2010-10-10T09:04:08Z</time>
      </trkpt>
      <trkpt lat="43.35882" lon="5.49327">
        <ele>174.006683</ele>
        <time>2010-10-10T09:04:12Z</time>
      </trkpt>
      <trkpt lat="43.35897" lon="5.4935">
        <ele>175.417801</ele>
        <time>2010-10-10T09:04:17Z</time>
      </trkpt>
      <trkpt lat="43.35913" lon="5.49372">
        <ele>177.046722</ele>
        <time>2010-10-10T09:04:22Z</time>
      </trkpt>
      <trkpt lat="43.35932" lon="5.49387">
        <ele>177.902191</ele>
        <time>2010-10-10T09:04:26Z</time>
      </trkpt>
      <trkpt lat="43.35948" lon="5.49397">
        <ele>178.121628</ele>
        <time>2010-10-10T09:04:31Z</time>
      </trkpt>
      <trkpt lat="43.35963" lon="5.49402">
        <ele>177.9319</ele>
        <time>2010-10-10T09:04:33Z</time>
      </trkpt>
      <trkpt lat="43.35988" lon="5.49408">
        <ele>177.20372</ele>
        <time>2010-10-10T09:04:38Z</time>
      </trkpt>
      <trkpt lat="43.36022" lon="5.49412">
        <ele>176.321625</ele>
        <time>2010-10-10T09:04:45Z</time>
      </trkpt>
      <trkpt lat="43.36038" lon="5.49415">
        <ele>175.884277</ele>
        <time>2010-10-10T09:04:49Z</time>
      </trkpt>
      <trkpt lat="43.36053" lon="5.49413">
        <ele>175.442734</ele>
        <time>2010-10-10T09:04:52Z</time>
      </trkpt>
      <trkpt lat="43.36073" lon="5.4941">
        <ele>175.173508</ele>
        <time>2010-10-10T09:04:57Z</time>
      </trkpt>
      <trkpt lat="43.36088" lon="5.49398">
        <ele>175.861237</ele>
        <time>2010-10-10T09:05:01Z</time>
      </trkpt>
      <trkpt lat="43.36107" lon="5.49388">
        <ele>176.705643</ele>
        <time>2010-10-10T09:05:06Z</time>
      </trkpt>
      <trkpt lat="43.36125" lon="5.49382">
        <ele>177.072495</ele>
        <time>2010-10-10T09:05:10Z</time>
      </trkpt>
      <trkpt lat="43.36142" lon="5.4938">
        <ele>177.220413</ele>
        <time>2010-10-10T09:05:13Z</time>
      </trkpt>
      <trkpt lat="43.36165" lon="5.49385">
        <ele>177.234818</ele>
        <time>2010-10-10T09:05:18Z</time>
      </trkpt>
      <trkpt lat="43.36183" lon="5.49392">
        <ele>176.647324</ele>
        <time>2010-10-10T09:05:22Z</time>
      </trkpt>
      <trkpt lat="43.36253" lon="5.49415">
        <ele>173.697968</ele>
        <time>2010-10-10T09:05:39Z</time>
      </trkpt>
      <trkpt lat="43.36267" lon="5.49427">
        <ele>174.877655</ele>
        <time>2010-10-10T09:05:43Z</time>
      </trkpt>
      <trkpt lat="43.36283" lon="5.49443">
        <ele>175.664261</ele>
        <time>2010-10-10T09:05:49Z</time>
      </trkpt>
      <trkpt lat="43.36293" lon="5.49468">
        <ele>175.942078</ele>
        <time>2010-10-10T09:05:53Z</time>
      </trkpt>
      <trkpt lat="43.363" lon="5.49497">
        <ele>177.173309</ele>
        <time>2010-10-10T09:05:58Z</time>
      </trkpt>
      <trkpt lat="43.36303" lon="5.49527">
        <ele>178.379211</ele>
        <time>2010-10-10T09:06:03Z</time>
      </trkpt>
      <trkpt lat="43.36308" lon="5.49547">
        <ele>178.777756</ele>
        <time>2010-10-10T09:06:08Z</time>
      </trkpt>
      <trkpt lat="43.36317" lon="5.49562">
        <ele>178.818573</ele>
        <time>2010-10-10T09:06:10Z</time>
      </trkpt>
      <trkpt lat="43.36332" lon="5.49583">
        <ele>178.809006</ele>
        <time>2010-10-10T09:06:15Z</time>
      </trkpt>
      <trkpt lat="43.36345" lon="5.49598">
        <ele>179.258545</ele>
        <time>2010-10-10T09:06:20Z</time>
      </trkpt>
      <trkpt lat="43.3638" lon="5.49637">
        <ele>180.207718</ele>
        <time>2010-10-10T09:06:29Z</time>
      </trkpt>
      <trkpt lat="43.36392" lon="5.49652">
        <ele>180.55687</ele>
        <time>2010-10-10T09:06:34Z</time>
      </trkpt>
      <trkpt lat="43.36402" lon="5.49672">
        <ele>180.369202</ele>
        <time>2010-10-10T09:06:38Z</time>
      </trkpt>
      <trkpt lat="43.36407" lon="5.49695">
        <ele>180.912445</ele>
        <time>2010-10-10T09:06:43Z</time>
      </trkpt>
      <trkpt lat="43.3641" lon="5.49717">
        <ele>180.877533</ele>
        <time>2010-10-10T09:06:48Z</time>
      </trkpt>
      <trkpt lat="43.36415" lon="5.49765">
        <ele>182.624786</ele>
        <time>2010-10-10T09:06:55Z</time>
      </trkpt>
      <trkpt lat="43.36417" lon="5.49788">
        <ele>183.530319</ele>
        <time>2010-10-10T09:07:00Z</time>
      </trkpt>
      <trkpt lat="43.3642" lon="5.49818">
        <ele>186.78392</ele>
        <time>2010-10-10T09:07:04Z</time>
      </trkpt>
      <trkpt lat="43.36425" lon="5.49842">
        <ele>188.832657</ele>
        <time>2010-10-10T09:07:09Z</time>
      </trkpt>
      <trkpt lat="43.36432" lon="5.4987">
        <ele>191.559204</ele>
        <time>2010-10-10T09:07:14Z</time>
      </trkpt>
      <trkpt lat="43.36453" lon="5.49943">
        <ele>194.032303</ele>
        <time>2010-10-10T09:07:26Z</time>
      </trkpt>
      <trkpt lat="43.36463" lon="5.49963">
        <ele>195.388565</ele>
        <time>2010-10-10T09:07:31Z</time>
      </trkpt>
      <trkpt lat="43.36482" lon="5.49997">
        <ele>198.875671</ele>
        <time>2010-10-10T09:07:38Z</time>
      </trkpt>
      <trkpt lat="43.36497" lon="5.50017">
        <ele>197.189407</ele>
        <time>2010-10-10T09:07:42Z</time>
      </trkpt>
      <trkpt lat="43.36523" lon="5.50055">
        <ele>199.976501</ele>
        <time>2010-10-10T09:07:52Z</time>
      </trkpt>
      <trkpt lat="43.36535" lon="5.5008">
        <ele>200.260406</ele>
        <time>2010-10-10T09:07:57Z</time>
      </trkpt>
      <trkpt lat="43.36563" lon="5.50142">
        <ele>200.969864</ele>
        <time>2010-10-10T09:08:09Z</time>
      </trkpt>
      <trkpt lat="43.36572" lon="5.50163">
        <ele>199.43959</ele>
        <time>2010-10-10T09:08:14Z</time>
      </trkpt>
      <trkpt lat="43.36578" lon="5.5019">
        <ele>199.46376</ele>
        <time>2010-10-10T09:08:19Z</time>
      </trkpt>
      <trkpt lat="43.3658" lon="5.50215">
        <ele>200.932526</ele>
        <time>2010-10-10T09:08:23Z</time>
      </trkpt>
      <trkpt lat="43.36582" lon="5.50238">
        <ele>201.381943</ele>
        <time>2010-10-10T09:08:28Z</time>
      </trkpt>
      <trkpt lat="43.36578" lon="5.50262">
        <ele>203.30603</ele>
        <time>2010-10-10T09:08:33Z</time>
      </trkpt>
      <trkpt lat="43.36575" lon="5.50285">
        <ele>205.904007</ele>
        <time>2010-10-10T09:08:38Z</time>
      </trkpt>
      <trkpt lat="43.36575" lon="5.50305">
        <ele>207.755157</ele>
        <time>2010-10-10T09:08:43Z</time>
      </trkpt>
      <trkpt lat="43.36578" lon="5.50325">
        <ele>206.89151</ele>
        <time>2010-10-10T09:08:48Z</time>
      </trkpt>
      <trkpt lat="43.36587" lon="5.50352">
        <ele>204.903717</ele>
        <time>2010-10-10T09:08:56Z</time>
      </trkpt>
      <trkpt lat="43.36602" lon="5.50368">
        <ele>208.284424</ele>
        <time>2010-10-10T09:09:03Z</time>
      </trkpt>
      <trkpt lat="43.36618" lon="5.50375">
        <ele>204.249191</ele>
        <time>2010-10-10T09:09:13Z</time>
      </trkpt>
      <trkpt lat="43.36638" lon="5.50363">
        <ele>203.407928</ele>
        <time>2010-10-10T09:09:17Z</time>
      </trkpt>
      <trkpt lat="43.36652" lon="5.50347">
        <ele>206.012207</ele>
        <time>2010-10-10T09:09:22Z</time>
      </trkpt>
      <trkpt lat="43.36657" lon="5.50327">
        <ele>205.861786</ele>
        <time>2010-10-10T09:09:27Z</time>
      </trkpt>
      <trkpt lat="43.36657" lon="5.50305">
        <ele>204.086334</ele>
        <time>2010-10-10T09:09:32Z</time>
      </trkpt>
      <trkpt lat="43.36658" lon="5.50283">
        <ele>203.333069</ele>
        <time>2010-10-10T09:09:37Z</time>
      </trkpt>
      <trkpt lat="43.36665" lon="5.50262">
        <ele>203.384705</ele>
        <time>2010-10-10T09:09:44Z</time>
      </trkpt>
      <trkpt lat="43.36675" lon="5.50233">
        <ele>203.12915</ele>
        <time>2010-10-10T09:09:51Z</time>
      </trkpt>
      <trkpt lat="43.36682" lon="5.50215">
        <ele>207.832138</ele>
        <time>2010-10-10T09:09:57Z</time>
      </trkpt>
      <trkpt lat="43.36695" lon="5.502">
        <ele>211.024368</ele>
        <time>2010-10-10T09:10:02Z</time>
      </trkpt>
      <trkpt lat="43.3671" lon="5.50198">
        <ele>210.990448</ele>
        <time>2010-10-10T09:10:09Z</time>
      </trkpt>
      <trkpt lat="43.36725" lon="5.50198">
        <ele>210.743011</ele>
        <time>2010-10-10T09:10:14Z</time>
      </trkpt>
      <trkpt lat="43.36745" lon="5.502">
        <ele>210.785522</ele>
        <time>2010-10-10T09:10:19Z</time>
      </trkpt>
      <trkpt lat="43.36765" lon="5.50203">
        <ele>210.59642</ele>
        <time>2010-10-10T09:10:24Z</time>
      </trkpt>
      <trkpt lat="43.3678" lon="5.50213">
        <ele>208.428909</ele>
        <time>2010-10-10T09:10:29Z</time>
      </trkpt>
      <trkpt lat="43.36798" lon="5.50212">
        <ele>207.556793</ele>
        <time>2010-10-10T09:10:36Z</time>
      </trkpt>
      <trkpt lat="43.36812" lon="5.50203">
        <ele>207.981079</ele>
        <time>2010-10-10T09:10:43Z</time>
      </trkpt>
      <trkpt lat="43.36828" lon="5.502">
        <ele>209.270096</ele>
        <time>2010-10-10T09:10:48Z</time>
      </trkpt>
      <trkpt lat="43.36845" lon="5.50202">
        <ele>209.916702</ele>
        <time>2010-10-10T09:10:53Z</time>
      </trkpt>
      <trkpt lat="43.36862" lon="5.50198">
        <ele>211.611771</ele>
        <time>2010-10-10T09:11:00Z</time>
      </trkpt>
      <trkpt lat="43.36873" lon="5.50182">
        <ele>214.58252</ele>
        <time>2010-10-10T09:11:12Z</time>
      </trkpt>
      <trkpt lat="43.36888" lon="5.50175">
        <ele>217.947067</ele>
        <time>2010-10-10T09:11:19Z</time>
      </trkpt>
      <trkpt lat="43.36905" lon="5.50175">
        <ele>219.331192</ele>
        <time>2010-10-10T09:11:26Z</time>
      </trkpt>
      <trkpt lat="43.36918" lon="5.50183">
        <ele>217.172394</ele>
        <time>2010-10-10T09:11:33Z</time>
      </trkpt>
      <trkpt lat="43.36935" lon="5.50193">
        <ele>217.433212</ele>
        <time>2010-10-10T09:11:40Z</time>
      </trkpt>
      <trkpt lat="43.36947" lon="5.50203">
        <ele>219.241425</ele>
        <time>2010-10-10T09:11:50Z</time>
      </trkpt>
      <trkpt lat="43.36962" lon="5.50195">
        <ele>219.143326</ele>
        <time>2010-10-10T09:11:59Z</time>
      </trkpt>
      <trkpt lat="43.36978" lon="5.50193">
        <ele>219.698364</ele>
        <time>2010-10-10T09:12:09Z</time>
      </trkpt>
      <trkpt lat="43.36992" lon="5.50177">
        <ele>222.202316</ele>
        <time>2010-10-10T09:12:19Z</time>
      </trkpt>
      <trkpt lat="43.37003" lon="5.50162">
        <ele>226.455185</ele>
        <time>2010-10-10T09:12:25Z</time>
      </trkpt>
      <trkpt lat="43.37017" lon="5.50157">
        <ele>227.840591</ele>
        <time>2010-10-10T09:12:30Z</time>
      </trkpt>
      <trkpt lat="43.3703" lon="5.50147">
        <ele>229.091217</ele>
        <time>2010-10-10T09:12:35Z</time>
      </trkpt>
      <trkpt lat="43.37048" lon="5.50145">
        <ele>229.635376</ele>
        <time>2010-10-10T09:12:42Z</time>
      </trkpt>
      <trkpt lat="43.37067" lon="5.50155">
        <ele>231.296585</ele>
        <time>2010-10-10T09:12:49Z</time>
      </trkpt>
      <trkpt lat="43.37082" lon="5.50155">
        <ele>232.560883</ele>
        <time>2010-10-10T09:12:58Z</time>
      </trkpt>
      <trkpt lat="43.37095" lon="5.50152">
        <ele>232.470505</ele>
        <time>2010-10-10T09:13:06Z</time>
      </trkpt>
      <trkpt lat="43.37108" lon="5.50138">
        <ele>229.417206</ele>
        <time>2010-10-10T09:13:13Z</time>
      </trkpt>
      <trkpt lat="43.37122" lon="5.50128">
        <ele>229.402069</ele>
        <time>2010-10-10T09:13:22Z</time>
      </trkpt>
      <trkpt lat="43.37138" lon="5.50123">
        <ele>230.878052</ele>
        <time>2010-10-10T09:13:29Z</time>
      </trkpt>
      <trkpt lat="43.37158" lon="5.50127">
        <ele>231.992981</ele>
        <time>2010-10-10T09:13:36Z</time>
      </trkpt>
      <trkpt lat="43.3718" lon="5.50132">
        <ele>232.966049</ele>
        <time>2010-10-10T09:13:44Z</time>
      </trkpt>
      <trkpt lat="43.372" lon="5.50132">
        <ele>234.900497</ele>
        <time>2010-10-10T09:13:51Z</time>
      </trkpt>
      <trkpt lat="43.37213" lon="5.50135">
        <ele>235.590088</ele>
        <time>2010-10-10T09:13:59Z</time>
      </trkpt>
      <trkpt lat="43.37228" lon="5.50153">
        <ele>236.910004</ele>
        <time>2010-10-10T09:14:06Z</time>
      </trkpt>
      <trkpt lat="43.37248" lon="5.5018">
        <ele>237.75827</ele>
        <time>2010-10-10T09:14:18Z</time>
      </trkpt>
      <trkpt lat="43.37252" lon="5.50202">
        <ele>237.193893</ele>
        <time>2010-10-10T09:14:26Z</time>
      </trkpt>
      <trkpt lat="43.37247" lon="5.50222">
        <ele>238.483566</ele>
        <time>2010-10-10T09:14:33Z</time>
      </trkpt>
      <trkpt lat="43.37238" lon="5.50237">
        <ele>239.700302</ele>
        <time>2010-10-10T09:14:39Z</time>
      </trkpt>
      <trkpt lat="43.37222" lon="5.50253">
        <ele>240.847626</ele>
        <time>2010-10-10T09:14:45Z</time>
      </trkpt>
      <trkpt lat="43.37212" lon="5.50267">
        <ele>241.639099</ele>
        <time>2010-10-10T09:14:51Z</time>
      </trkpt>
      <trkpt lat="43.37205" lon="5.50283">
        <ele>243.443207</ele>
        <time>2010-10-10T09:14:56Z</time>
      </trkpt>
      <trkpt lat="43.372" lon="5.50308">
        <ele>243.743011</ele>
        <time>2010-10-10T09:15:03Z</time>
      </trkpt>
      <trkpt lat="43.372" lon="5.50328">
        <ele>243.019653</ele>
        <time>2010-10-10T09:15:07Z</time>
      </trkpt>
      <trkpt lat="43.37208" lon="5.50352">
        <ele>241.24556</ele>
        <time>2010-10-10T09:15:14Z</time>
      </trkpt>
      <trkpt lat="43.37217" lon="5.50368">
        <ele>242.030838</ele>
        <time>2010-10-10T09:15:19Z</time>
      </trkpt>
      <trkpt lat="43.37227" lon="5.50388">
        <ele>243.320267</ele>
        <time>2010-10-10T09:15:26Z</time>
      </trkpt>
      <trkpt lat="43.37238" lon="5.50408">
        <ele>245.420074</ele>
        <time>2010-10-10T09:15:33Z</time>
      </trkpt>
      <trkpt lat="43.37253" lon="5.50422">
        <ele>244.909424</ele>
        <time>2010-10-10T09:15:40Z</time>
      </trkpt>
      <trkpt lat="43.3727" lon="5.50415">
        <ele>247.382751</ele>
        <time>2010-10-10T09:15:48Z</time>
      </trkpt>
      <trkpt lat="43.3728" lon="5.504">
        <ele>248.306046</ele>
        <time>2010-10-10T09:15:55Z</time>
      </trkpt>
      <trkpt lat="43.37292" lon="5.50385">
        <ele>250.136597</ele>
        <time>2010-10-10T09:16:03Z</time>
      </trkpt>
      <trkpt lat="43.37305" lon="5.50377">
        <ele>252.840576</ele>
        <time>2010-10-10T09:16:08Z</time>
      </trkpt>
      <trkpt lat="43.37322" lon="5.50375">
        <ele>253.067307</ele>
        <time>2010-10-10T09:16:13Z</time>
      </trkpt>
      <trkpt lat="43.37335" lon="5.50382">
        <ele>251.480347</ele>
        <time>2010-10-10T09:16:19Z</time>
      </trkpt>
      <trkpt lat="43.37338" lon="5.504">
        <ele>250.391113</ele>
        <time>2010-10-10T09:16:29Z</time>
      </trkpt>
      <trkpt lat="43.37358" lon="5.50398">
        <ele>250.559219</ele>
        <time>2010-10-10T09:16:39Z</time>
      </trkpt>
      <trkpt lat="43.37373" lon="5.5039">
        <ele>251.314911</ele>
        <time>2010-10-10T09:16:46Z</time>
      </trkpt>
      <trkpt lat="43.37388" lon="5.50387">
        <ele>252.6922</ele>
        <time>2010-10-10T09:16:53Z</time>
      </trkpt>
      <trkpt lat="43.37403" lon="5.50388">
        <ele>253.118805</ele>
        <time>2010-10-10T09:17:00Z</time>
      </trkpt>
      <trkpt lat="43.37418" lon="5.50397">
        <ele>252.515244</ele>
        <time>2010-10-10T09:17:07Z</time>
      </trkpt>
      <trkpt lat="43.3743" lon="5.50407">
        <ele>255.141098</ele>
        <time>2010-10-10T09:17:12Z</time>
      </trkpt>
      <trkpt lat="43.37442" lon="5.50422">
        <ele>258.948547</ele>
        <time>2010-10-10T09:17:22Z</time>
      </trkpt>
      <trkpt lat="43.37457" lon="5.50435">
        <ele>261.22876</ele>
        <time>2010-10-10T09:17:31Z</time>
      </trkpt>
      <trkpt lat="43.37473" lon="5.5044">
        <ele>260.862427</ele>
        <time>2010-10-10T09:17:38Z</time>
      </trkpt>
      <trkpt lat="43.37492" lon="5.5044">
        <ele>260.200165</ele>
        <time>2010-10-10T09:17:45Z</time>
      </trkpt>
      <trkpt lat="43.37508" lon="5.50438">
        <ele>259.570465</ele>
        <time>2010-10-10T09:17:53Z</time>
      </trkpt>
      <trkpt lat="43.37523" lon="5.50433">
        <ele>258.156097</ele>
        <time>2010-10-10T09:17:57Z</time>
      </trkpt>
      <trkpt lat="43.37538" lon="5.50423">
        <ele>257.483307</ele>
        <time>2010-10-10T09:18:02Z</time>
      </trkpt>
      <trkpt lat="43.37558" lon="5.50408">
        <ele>256.174164</ele>
        <time>2010-10-10T09:18:07Z</time>
      </trkpt>
      <trkpt lat="43.37582" lon="5.5041">
        <ele>257.703003</ele>
        <time>2010-10-10T09:18:14Z</time>
      </trkpt>
      <trkpt lat="43.376" lon="5.50417">
        <ele>259.161285</ele>
        <time>2010-10-10T09:18:19Z</time>
      </trkpt>
      <trkpt lat="43.37623" lon="5.50425">
        <ele>260.37442</ele>
        <time>2010-10-10T09:18:26Z</time>
      </trkpt>
      <trkpt lat="43.37642" lon="5.50433">
        <ele>261.034851</ele>
        <time>2010-10-10T09:18:30Z</time>
      </trkpt>
      <trkpt lat="43.3766" lon="5.50445">
        <ele>262.649902</ele>
        <time>2010-10-10T09:18:35Z</time>
      </trkpt>
      <trkpt lat="43.37673" lon="5.50452">
        <ele>263.525818</ele>
        <time>2010-10-10T09:18:40Z</time>
      </trkpt>
      <trkpt lat="43.3769" lon="5.50457">
        <ele>263.29715</ele>
        <time>2010-10-10T09:18:45Z</time>
      </trkpt>
      <trkpt lat="43.37713" lon="5.50463">
        <ele>262.635284</ele>
        <time>2010-10-10T09:18:50Z</time>
      </trkpt>
      <trkpt lat="43.37727" lon="5.5047">
        <ele>262.291168</ele>
        <time>2010-10-10T09:18:55Z</time>
      </trkpt>
      <trkpt lat="43.37742" lon="5.5048">
        <ele>262.026093</ele>
        <time>2010-10-10T09:18:59Z</time>
      </trkpt>
      <trkpt lat="43.37762" lon="5.50493">
        <ele>263.374207</ele>
        <time>2010-10-10T09:19:04Z</time>
      </trkpt>
      <trkpt lat="43.37777" lon="5.50508">
        <ele>263.736023</ele>
        <time>2010-10-10T09:19:09Z</time>
      </trkpt>
      <trkpt lat="43.37792" lon="5.50527">
        <ele>262.794312</ele>
        <time>2010-10-10T09:19:15Z</time>
      </trkpt>
      <trkpt lat="43.37798" lon="5.50543">
        <ele>263.760223</ele>
        <time>2010-10-10T09:19:18Z</time>
      </trkpt>
      <trkpt lat="43.3781" lon="5.50565">
        <ele>265.044861</ele>
        <time>2010-10-10T09:19:24Z</time>
      </trkpt>
      <trkpt lat="43.37815" lon="5.50593">
        <ele>265.832458</ele>
        <time>2010-10-10T09:19:30Z</time>
      </trkpt>
      <trkpt lat="43.37818" lon="5.5063">
        <ele>269.060883</ele>
        <time>2010-10-10T09:19:38Z</time>
      </trkpt>
      <trkpt lat="43.37825" lon="5.50668">
        <ele>271.49762</ele>
        <time>2010-10-10T09:19:48Z</time>
      </trkpt>
      <trkpt lat="43.37833" lon="5.5069">
        <ele>274.52005</ele>
        <time>2010-10-10T09:19:56Z</time>
      </trkpt>
      <trkpt lat="43.37853" lon="5.50703">
        <ele>275.141418</ele>
        <time>2010-10-10T09:20:03Z</time>
      </trkpt>
      <trkpt lat="43.3787" lon="5.5071">
        <ele>273.94574</ele>
        <time>2010-10-10T09:20:08Z</time>
      </trkpt>
      <trkpt lat="43.37883" lon="5.50718">
        <ele>274.214417</ele>
        <time>2010-10-10T09:20:13Z</time>
      </trkpt>
      <trkpt lat="43.37907" lon="5.50723">
        <ele>272.959961</ele>
        <time>2010-10-10T09:20:20Z</time>
      </trkpt>
      <trkpt lat="43.37923" lon="5.50728">
        <ele>272.213959</ele>
        <time>2010-10-10T09:20:26Z</time>
      </trkpt>
      <trkpt lat="43.37938" lon="5.5073">
        <ele>271.85257</ele>
        <time>2010-10-10T09:20:30Z</time>
      </trkpt>
      <trkpt lat="43.37948" lon="5.50708">
        <ele>270.873383</ele>
        <time>2010-10-10T09:20:38Z</time>
      </trkpt>
      <trkpt lat="43.37958" lon="5.50692">
        <ele>271.129944</ele>
        <time>2010-10-10T09:20:47Z</time>
      </trkpt>
      <trkpt lat="43.37975" lon="5.50688">
        <ele>272.171265</ele>
        <time>2010-10-10T09:20:55Z</time>
      </trkpt>
      <trkpt lat="43.37993" lon="5.50683">
        <ele>273.053619</ele>
        <time>2010-10-10T09:21:01Z</time>
      </trkpt>
      <trkpt lat="43.3801" lon="5.5068">
        <ele>273.88678</ele>
        <time>2010-10-10T09:21:11Z</time>
      </trkpt>
      <trkpt lat="43.3803" lon="5.50675">
        <ele>274.560333</ele>
        <time>2010-10-10T09:21:16Z</time>
      </trkpt>
      <trkpt lat="43.38052" lon="5.50675">
        <ele>274.337708</ele>
        <time>2010-10-10T09:21:21Z</time>
      </trkpt>
      <trkpt lat="43.38067" lon="5.5067">
        <ele>275.893951</ele>
        <time>2010-10-10T09:21:26Z</time>
      </trkpt>
      <trkpt lat="43.38083" lon="5.5067">
        <ele>276.29306</ele>
        <time>2010-10-10T09:21:34Z</time>
      </trkpt>
      <trkpt lat="43.38098" lon="5.50662">
        <ele>277.723785</ele>
        <time>2010-10-10T09:21:39Z</time>
      </trkpt>
      <trkpt lat="43.38112" lon="5.50655">
        <ele>278.244995</ele>
        <time>2010-10-10T09:21:43Z</time>
      </trkpt>
      <trkpt lat="43.3813" lon="5.50643">
        <ele>278.421417</ele>
        <time>2010-10-10T09:21:48Z</time>
      </trkpt>
      <trkpt lat="43.38145" lon="5.50635">
        <ele>277.783783</ele>
        <time>2010-10-10T09:21:53Z</time>
      </trkpt>
      <trkpt lat="43.3816" lon="5.50628">
        <ele>279.215698</ele>
        <time>2010-10-10T09:21:58Z</time>
      </trkpt>
      <trkpt lat="43.38173" lon="5.50637">
        <ele>280.105865</ele>
        <time>2010-10-10T09:22:03Z</time>
      </trkpt>
      <trkpt lat="43.38185" lon="5.50657">
        <ele>279.550079</ele>
        <time>2010-10-10T09:22:10Z</time>
      </trkpt>
      <trkpt lat="43.38193" lon="5.50677">
        <ele>278.429108</ele>
        <time>2010-10-10T09:22:17Z</time>
      </trkpt>
      <trkpt lat="43.38197" lon="5.50695">
        <ele>278.306061</ele>
        <time>2010-10-10T09:22:21Z</time>
      </trkpt>
      <trkpt lat="43.38205" lon="5.50715">
        <ele>279.890656</ele>
        <time>2010-10-10T09:22:29Z</time>
      </trkpt>
      <trkpt lat="43.38217" lon="5.50727">
        <ele>280.360107</ele>
        <time>2010-10-10T09:22:34Z</time>
      </trkpt>
      <trkpt lat="43.3823" lon="5.50735">
        <ele>280.109619</ele>
        <time>2010-10-10T09:22:39Z</time>
      </trkpt>
      <trkpt lat="43.3825" lon="5.5075">
        <ele>282.192963</ele>
        <time>2010-10-10T09:22:47Z</time>
      </trkpt>
      <trkpt lat="43.38257" lon="5.50767">
        <ele>283.901764</ele>
        <time>2010-10-10T09:22:52Z</time>
      </trkpt>
      <trkpt lat="43.38261" lon="5.50793">
        <ele>284.84494</ele>
        <time>2010-10-10T09:23:00Z</time>
      </trkpt>
      <trkpt lat="43.38268" lon="5.50817">
        <ele>284.445099</ele>
        <time>2010-10-10T09:23:06Z</time>
      </trkpt>
      <trkpt lat="43.38283" lon="5.50823">
        <ele>285.260559</ele>
        <time>2010-10-10T09:23:13Z</time>
      </trkpt>
      <trkpt lat="43.38297" lon="5.50813">
        <ele>285.064575</ele>
        <time>2010-10-10T09:23:21Z</time>
      </trkpt>
      <trkpt lat="43.38307" lon="5.508">
        <ele>288.273132</ele>
        <time>2010-10-10T09:23:29Z</time>
      </trkpt>
      <trkpt lat="43.3832" lon="5.50785">
        <ele>292.877319</ele>
        <time>2010-10-10T09:23:34Z</time>
      </trkpt>
      <trkpt lat="43.38345" lon="5.50777">
        <ele>295.716705</ele>
        <time>2010-10-10T09:23:41Z</time>
      </trkpt>
      <trkpt lat="43.38362" lon="5.50787">
        <ele>295.112091</ele>
        <time>2010-10-10T09:23:49Z</time>
      </trkpt>
      <trkpt lat="43.38375" lon="5.50802">
        <ele>293.965149</ele>
        <time>2010-10-10T09:23:58Z</time>
      </trkpt>
      <trkpt lat="43.38362" lon="5.50807">
        <ele>292.469299</ele>
        <time>2010-10-10T09:24:07Z</time>
      </trkpt>
      <trkpt lat="43.38345" lon="5.5081">
        <ele>290.907166</ele>
        <time>2010-10-10T09:24:20Z</time>
      </trkpt>
      <trkpt lat="43.38332" lon="5.50822">
        <ele>289.705048</ele>
        <time>2010-10-10T09:24:31Z</time>
      </trkpt>
      <trkpt lat="43.38322" lon="5.50837">
        <ele>294.112793</ele>
        <time>2010-10-10T09:24:38Z</time>
      </trkpt>
      <trkpt lat="43.38312" lon="5.5086">
        <ele>300.542297</ele>
        <time>2010-10-10T09:24:56Z</time>
      </trkpt>
      <trkpt lat="43.38295" lon="5.50868">
        <ele>301.018463</ele>
        <time>2010-10-10T09:25:05Z</time>
      </trkpt>
      <trkpt lat="43.3828" lon="5.50872">
        <ele>300.04245</ele>
        <time>2010-10-10T09:25:14Z</time>
      </trkpt>
      <trkpt lat="43.38263" lon="5.50872">
        <ele>302.553284</ele>
        <time>2010-10-10T09:25:24Z</time>
      </trkpt>
      <trkpt lat="43.38253" lon="5.50858">
        <ele>301.031708</ele>
        <time>2010-10-10T09:25:36Z</time>
      </trkpt>
      <trkpt lat="43.38248" lon="5.5084">
        <ele>296.303894</ele>
        <time>2010-10-10T09:25:44Z</time>
      </trkpt>
      <trkpt lat="43.38233" lon="5.50827">
        <ele>295.385895</ele>
        <time>2010-10-10T09:25:51Z</time>
      </trkpt>
      <trkpt lat="43.38218" lon="5.50822">
        <ele>296.582581</ele>
        <time>2010-10-10T09:25:59Z</time>
      </trkpt>
      <trkpt lat="43.38202" lon="5.50823">
        <ele>300.294769</ele>
        <time>2010-10-10T09:26:08Z</time>
      </trkpt>
      <trkpt lat="43.38187" lon="5.50837">
        <ele>307.36911</ele>
        <time>2010-10-10T09:26:26Z</time>
      </trkpt>
      <trkpt lat="43.38172" lon="5.50838">
        <ele>311.503448</ele>
        <time>2010-10-10T09:26:36Z</time>
      </trkpt>
      <trkpt lat="43.38158" lon="5.50835">
        <ele>313.794281</ele>
        <time>2010-10-10T09:26:45Z</time>
      </trkpt>
      <trkpt lat="43.38148" lon="5.5082">
        <ele>312.296143</ele>
        <time>2010-10-10T09:26:55Z</time>
      </trkpt>
      <trkpt lat="43.38137" lon="5.508">
        <ele>309.031097</ele>
        <time>2010-10-10T09:27:07Z</time>
      </trkpt>
      <trkpt lat="43.38123" lon="5.5079">
        <ele>306.982239</ele>
        <time>2010-10-10T09:27:18Z</time>
      </trkpt>
      <trkpt lat="43.3811" lon="5.50798">
        <ele>311.041046</ele>
        <time>2010-10-10T09:27:31Z</time>
      </trkpt>
      <trkpt lat="43.38097" lon="5.50812">
        <ele>316.268677</ele>
        <time>2010-10-10T09:27:43Z</time>
      </trkpt>
      <trkpt lat="43.38082" lon="5.50827">
        <ele>315.258423</ele>
        <time>2010-10-10T09:28:01Z</time>
      </trkpt>
      <trkpt lat="43.38073" lon="5.50842">
        <ele>315.659912</ele>
        <time>2010-10-10T09:28:11Z</time>
      </trkpt>
      <trkpt lat="43.3807" lon="5.50862">
        <ele>318.299286</ele>
        <time>2010-10-10T09:28:24Z</time>
      </trkpt>
      <trkpt lat="43.3807" lon="5.50882">
        <ele>319.939972</ele>
        <time>2010-10-10T09:28:36Z</time>
      </trkpt>
      <trkpt lat="43.3808" lon="5.50901">
        <ele>324.966003</ele>
        <time>2010-10-10T09:28:45Z</time>
      </trkpt>
      <trkpt lat="43.38083" lon="5.50917">
        <ele>327.649597</ele>
        <time>2010-10-10T09:29:02Z</time>
      </trkpt>
      <trkpt lat="43.3809" lon="5.5094">
        <ele>331.30188</ele>
        <time>2010-10-10T09:29:20Z</time>
      </trkpt>
      <trkpt lat="43.38093" lon="5.50958">
        <ele>331.862579</ele>
        <time>2010-10-10T09:29:33Z</time>
      </trkpt>
      <trkpt lat="43.38097" lon="5.50978">
        <ele>332.545959</ele>
        <time>2010-10-10T09:29:45Z</time>
      </trkpt>
      <trkpt lat="43.38103" lon="5.51002">
        <ele>337.650208</ele>
        <time>2010-10-10T09:30:02Z</time>
      </trkpt>
      <trkpt lat="43.38107" lon="5.51022">
        <ele>342.973114</ele>
        <time>2010-10-10T09:30:13Z</time>
      </trkpt>
      <trkpt lat="43.38108" lon="5.51039">
        <ele>346.683929</ele>
      </trkpt>
      <trkpt lat="43.38092" lon="5.51035">
        <ele>341.996918</ele>
        <time>2010-10-10T09:30:31Z</time>
      </trkpt>
      <trkpt lat="43.38075" lon="5.51035">
        <ele>342.67688</ele>
        <time>2010-10-10T09:30:44Z</time>
      </trkpt>
      <trkpt lat="43.3806" lon="5.51032">
        <ele>342.564575</ele>
        <time>2010-10-10T09:30:55Z</time>
      </trkpt>
      <trkpt lat="43.3803" lon="5.51028">
        <ele>343.655029</ele>
        <time>2010-10-10T09:31:21Z</time>
      </trkpt>
      <trkpt lat="43.38" lon="5.51028">
        <ele>346.542725</ele>
        <time>2010-10-10T09:31:44Z</time>
      </trkpt>
      <trkpt lat="43.37985" lon="5.51027">
        <ele>347.167542</ele>
        <time>2010-10-10T09:31:54Z</time>
      </trkpt>
      <trkpt lat="43.37962" lon="5.51023">
        <ele>348.011169</ele>
        <time>2010-10-10T09:32:12Z</time>
      </trkpt>
      <trkpt lat="43.37947" lon="5.51013">
        <ele>346.408539</ele>
        <time>2010-10-10T09:32:22Z</time>
      </trkpt>
      <trkpt lat="43.37933" lon="5.51002">
        <ele>345.322235</ele>
        <time>2010-10-10T09:32:31Z</time>
      </trkpt>
      <trkpt lat="43.3791" lon="5.50978">
        <ele>345.653961</ele>
        <time>2010-10-10T09:32:48Z</time>
      </trkpt>
      <trkpt lat="43.37918" lon="5.50997">
        <ele>346.76709</ele>
        <time>2010-10-10T09:34:12Z</time>
      </trkpt>
      <trkpt lat="43.37907" lon="5.5098">
        <ele>345.76889</ele>
        <time>2010-10-10T09:34:15Z</time>
      </trkpt>
      <trkpt lat="43.379" lon="5.5096">
        <ele>343.11264</ele>
        <time>2010-10-10T09:37:26Z</time>
      </trkpt>
      <trkpt lat="43.37905" lon="5.5098">
        <ele>345.702759</ele>
        <time>2010-10-10T09:38:27Z</time>
      </trkpt>
      <trkpt lat="43.37903" lon="5.51005">
        <ele>347.799255</ele>
        <time>2010-10-10T09:40:13Z</time>
      </trkpt>
      <trkpt lat="43.37908" lon="5.51023">
        <ele>350.449036</ele>
        <time>2010-10-10T09:40:23Z</time>
      </trkpt>
      <trkpt lat="43.37915" lon="5.51042">
        <ele>353.161591</ele>
        <time>2010-10-10T09:40:34Z</time>
      </trkpt>
      <trkpt lat="43.3792" lon="5.51063">
        <ele>355.206146</ele>
        <time>2010-10-10T09:40:46Z</time>
      </trkpt>
      <trkpt lat="43.37927" lon="5.51088">
        <ele>358.672241</ele>
        <time>2010-10-10T09:41:03Z</time>
      </trkpt>
      <trkpt lat="43.37935" lon="5.51125">
        <ele>363.286713</ele>
        <time>2010-10-10T09:41:23Z</time>
      </trkpt>
      <trkpt lat="43.37935" lon="5.51145">
        <ele>364.048431</ele>
        <time>2010-10-10T09:41:35Z</time>
      </trkpt>
      <trkpt lat="43.37937" lon="5.51167">
        <ele>365.4104</ele>
        <time>2010-10-10T09:41:47Z</time>
      </trkpt>
      <trkpt lat="43.37943" lon="5.51183">
        <ele>366.713043</ele>
        <time>2010-10-10T09:41:57Z</time>
      </trkpt>
      <trkpt lat="43.37952" lon="5.512">
        <ele>368.85199</ele>
        <time>2010-10-10T09:42:09Z</time>
      </trkpt>
      <trkpt lat="43.37957" lon="5.5122">
        <ele>370.080261</ele>
        <time>2010-10-10T09:42:20Z</time>
      </trkpt>
      <trkpt lat="43.37967" lon="5.51253">
        <ele>372.006927</ele>
        <time>2010-10-10T09:42:39Z</time>
      </trkpt>
      <trkpt lat="43.37977" lon="5.51303">
        <ele>372.402924</ele>
        <time>2010-10-10T09:42:48Z</time>
      </trkpt>
      <trkpt lat="43.3798" lon="5.51263">
        <ele>376.781067</ele>
        <time>2010-10-10T09:43:11Z</time>
      </trkpt>
      <trkpt lat="43.37978" lon="5.51243">
        <ele>377.579041</ele>
        <time>2010-10-10T09:43:21Z</time>
      </trkpt>
      <trkpt lat="43.37975" lon="5.51222">
        <ele>377.12674</ele>
        <time>2010-10-10T09:43:28Z</time>
      </trkpt>
      <trkpt lat="43.37975" lon="5.51202">
        <ele>376.984375</ele>
        <time>2010-10-10T09:43:35Z</time>
      </trkpt>
      <trkpt lat="43.37975" lon="5.51178">
        <ele>376.87207</ele>
        <time>2010-10-10T09:43:42Z</time>
      </trkpt>
      <trkpt lat="43.37982" lon="5.51158">
        <ele>377.344269</ele>
        <time>2010-10-10T09:43:49Z</time>
      </trkpt>
      <trkpt lat="43.37995" lon="5.51145">
        <ele>378.522705</ele>
        <time>2010-10-10T09:43:56Z</time>
      </trkpt>
      <trkpt lat="43.3801" lon="5.51147">
        <ele>380.061829</ele>
        <time>2010-10-10T09:44:03Z</time>
      </trkpt>
      <trkpt lat="43.38023" lon="5.5115">
        <ele>381.635132</ele>
        <time>2010-10-10T09:44:10Z</time>
      </trkpt>
      <trkpt lat="43.3804" lon="5.51155">
        <ele>384.077667</ele>
        <time>2010-10-10T09:44:20Z</time>
      </trkpt>
      <trkpt lat="43.38068" lon="5.51167">
        <ele>387.861725</ele>
        <time>2010-10-10T09:44:39Z</time>
      </trkpt>
      <trkpt lat="43.38102" lon="5.51178">
        <ele>391.736389</ele>
        <time>2010-10-10T09:45:00Z</time>
      </trkpt>
      <trkpt lat="43.38128" lon="5.5119">
        <ele>395.110535</ele>
        <time>2010-10-10T09:45:17Z</time>
      </trkpt>
      <trkpt lat="43.38143" lon="5.51193">
        <ele>398.609711</ele>
        <time>2010-10-10T09:45:26Z</time>
      </trkpt>
      <trkpt lat="43.38158" lon="5.51193">
        <ele>401.452484</ele>
        <time>2010-10-10T09:45:35Z</time>
      </trkpt>
      <trkpt lat="43.38177" lon="5.5119">
        <ele>404.144806</ele>
        <time>2010-10-10T09:45:45Z</time>
      </trkpt>
      <trkpt lat="43.3819" lon="5.51177">
        <ele>404.577576</ele>
        <time>2010-10-10T09:45:54Z</time>
      </trkpt>
      <trkpt lat="43.38203" lon="5.51158">
        <ele>403.682648</ele>
        <time>2010-10-10T09:46:06Z</time>
      </trkpt>
      <trkpt lat="43.38213" lon="5.51143">
        <ele>402.897095</ele>
        <time>2010-10-10T09:46:15Z</time>
      </trkpt>
      <trkpt lat="43.38222" lon="5.51128">
        <ele>401.729034</ele>
        <time>2010-10-10T09:46:24Z</time>
      </trkpt>
      <trkpt lat="43.38237" lon="5.51118">
        <ele>400.641724</ele>
        <time>2010-10-10T09:46:34Z</time>
      </trkpt>
      <trkpt lat="43.38252" lon="5.51117">
        <ele>401.528503</ele>
        <time>2010-10-10T09:46:43Z</time>
      </trkpt>
      <trkpt lat="43.38265" lon="5.51122">
        <ele>404.277405</ele>
        <time>2010-10-10T09:46:52Z</time>
      </trkpt>
      <trkpt lat="43.38283" lon="5.51127">
        <ele>402.210297</ele>
        <time>2010-10-10T09:47:04Z</time>
      </trkpt>
      <trkpt lat="43.38295" lon="5.51142">
        <ele>403.784454</ele>
        <time>2010-10-10T09:47:13Z</time>
      </trkpt>
      <trkpt lat="43.38303" lon="5.5116">
        <ele>407.026337</ele>
        <time>2010-10-10T09:47:22Z</time>
      </trkpt>
      <trkpt lat="43.38312" lon="5.5118">
        <ele>410.347717</ele>
        <time>2010-10-10T09:47:32Z</time>
      </trkpt>
      <trkpt lat="43.38317" lon="5.51198">
        <ele>411.761566</ele>
        <time>2010-10-10T09:47:41Z</time>
      </trkpt>
      <trkpt lat="43.38318" lon="5.51218">
        <ele>414.990112</ele>
        <time>2010-10-10T09:47:51Z</time>
      </trkpt>
      <trkpt lat="43.38323" lon="5.51238">
        <ele>416.695251</ele>
        <time>2010-10-10T09:48:00Z</time>
      </trkpt>
      <trkpt lat="43.38328" lon="5.51258">
        <ele>418.082153</ele>
        <time>2010-10-10T09:48:10Z</time>
      </trkpt>
      <trkpt lat="43.38338" lon="5.5128">
        <ele>417.364288</ele>
        <time>2010-10-10T09:48:19Z</time>
      </trkpt>
      <trkpt lat="43.38348" lon="5.51297">
        <ele>416.744934</ele>
        <time>2010-10-10T09:48:28Z</time>
      </trkpt>
      <trkpt lat="43.38358" lon="5.51315">
        <ele>415.304321</ele>
        <time>2010-10-10T09:48:37Z</time>
      </trkpt>
      <trkpt lat="43.38362" lon="5.51337">
        <ele>414.57019</ele>
        <time>2010-10-10T09:48:47Z</time>
      </trkpt>
      <trkpt lat="43.38357" lon="5.51361">
        <ele>418.762085</ele>
        <time>2010-10-10T09:48:54Z</time>
      </trkpt>
      <trkpt lat="43.38354" lon="5.51382">
        <ele>420.920013</ele>
        <time>2010-10-10T09:49:01Z</time>
      </trkpt>
      <trkpt lat="43.38352" lon="5.51402">
        <ele>421.670288</ele>
        <time>2010-10-10T09:49:13Z</time>
      </trkpt>
      <trkpt lat="43.38355" lon="5.51422">
        <ele>419.576416</ele>
        <time>2010-10-10T09:49:22Z</time>
      </trkpt>
      <trkpt lat="43.38357" lon="5.51443">
        <ele>418.46048</ele>
        <time>2010-10-10T09:49:32Z</time>
      </trkpt>
      <trkpt lat="43.38357" lon="5.51472">
        <ele>418.434814</ele>
        <time>2010-10-10T09:49:41Z</time>
      </trkpt>
      <trkpt lat="43.38353" lon="5.51495">
        <ele>420.4841</ele>
        <time>2010-10-10T09:49:50Z</time>
      </trkpt>
      <trkpt lat="43.38353" lon="5.51518">
        <ele>422.088074</ele>
        <time>2010-10-10T09:49:59Z</time>
      </trkpt>
      <trkpt lat="43.38355" lon="5.5154">
        <ele>422.914795</ele>
        <time>2010-10-10T09:50:08Z</time>
      </trkpt>
      <trkpt lat="43.38362" lon="5.51562">
        <ele>421.597595</ele>
        <time>2010-10-10T09:50:18Z</time>
      </trkpt>
      <trkpt lat="43.38368" lon="5.51583">
        <ele>424.010986</ele>
        <time>2010-10-10T09:50:27Z</time>
      </trkpt>
      <trkpt lat="43.38377" lon="5.51598">
        <ele>425.339417</ele>
        <time>2010-10-10T09:50:34Z</time>
      </trkpt>
      <trkpt lat="43.38388" lon="5.51613">
        <ele>427.050079</ele>
        <time>2010-10-10T09:50:43Z</time>
      </trkpt>
      <trkpt lat="43.38402" lon="5.51625">
        <ele>427.788483</ele>
        <time>2010-10-10T09:50:51Z</time>
      </trkpt>
      <trkpt lat="43.38413" lon="5.51635">
        <ele>427.238159</ele>
        <time>2010-10-10T09:50:57Z</time>
      </trkpt>
      <trkpt lat="43.38427" lon="5.51645">
        <ele>426.809723</ele>
        <time>2010-10-10T09:51:05Z</time>
      </trkpt>
      <trkpt lat="43.38437" lon="5.51662">
        <ele>428.657532</ele>
        <time>2010-10-10T09:51:12Z</time>
      </trkpt>
      <trkpt lat="43.3845" lon="5.51685">
        <ele>430.602295</ele>
        <time>2010-10-10T09:51:22Z</time>
      </trkpt>
      <trkpt lat="43.38462" lon="5.517">
        <ele>429.387207</ele>
        <time>2010-10-10T09:51:31Z</time>
      </trkpt>
      <trkpt lat="43.3847" lon="5.51718">
        <ele>430.239563</ele>
        <time>2010-10-10T09:51:38Z</time>
      </trkpt>
      <trkpt lat="43.3848" lon="5.5174">
        <ele>431.143646</ele>
        <time>2010-10-10T09:51:48Z</time>
      </trkpt>
      <trkpt lat="43.3849" lon="5.51762">
        <ele>430.165924</ele>
        <time>2010-10-10T09:51:57Z</time>
      </trkpt>
      <trkpt lat="43.38495" lon="5.5178">
        <ele>429.607788</ele>
        <time>2010-10-10T09:52:04Z</time>
      </trkpt>
      <trkpt lat="43.385" lon="5.518">
        <ele>429.406921</ele>
        <time>2010-10-10T09:52:11Z</time>
      </trkpt>
      <trkpt lat="43.38502" lon="5.5182">
        <ele>429.984528</ele>
        <time>2010-10-10T09:52:18Z</time>
      </trkpt>
      <trkpt lat="43.385" lon="5.51843">
        <ele>430.109741</ele>
        <time>2010-10-10T09:52:27Z</time>
      </trkpt>
      <trkpt lat="43.38495" lon="5.51888">
        <ele>431.637634</ele>
        <time>2010-10-10T09:52:44Z</time>
      </trkpt>
      <trkpt lat="43.38498" lon="5.51917">
        <ele>434.475464</ele>
        <time>2010-10-10T09:52:53Z</time>
      </trkpt>
      <trkpt lat="43.38507" lon="5.51938">
        <ele>438.760803</ele>
        <time>2010-10-10T09:53:02Z</time>
      </trkpt>
      <trkpt lat="43.3852" lon="5.51953">
        <ele>442.83136</ele>
        <time>2010-10-10T09:53:12Z</time>
      </trkpt>
      <trkpt lat="43.38533" lon="5.51963">
        <ele>444.080627</ele>
        <time>2010-10-10T09:53:19Z</time>
      </trkpt>
      <trkpt lat="43.38547" lon="5.51973">
        <ele>446.14917</ele>
        <time>2010-10-10T09:53:26Z</time>
      </trkpt>
      <trkpt lat="43.38562" lon="5.51985">
        <ele>448.334045</ele>
        <time>2010-10-10T09:53:36Z</time>
      </trkpt>
      <trkpt lat="43.38572" lon="5.52">
        <ele>450.6427</ele>
        <time>2010-10-10T09:53:43Z</time>
      </trkpt>
      <trkpt lat="43.3858" lon="5.5202">
        <ele>453.937225</ele>
        <time>2010-10-10T09:53:53Z</time>
      </trkpt>
      <trkpt lat="43.38588" lon="5.52037">
        <ele>456.21344</ele>
        <time>2010-10-10T09:54:02Z</time>
      </trkpt>
      <trkpt lat="43.386" lon="5.52053">
        <ele>457.652283</ele>
        <time>2010-10-10T09:54:14Z</time>
      </trkpt>
      <trkpt lat="43.38612" lon="5.52067">
        <ele>458.814575</ele>
        <time>2010-10-10T09:54:26Z</time>
      </trkpt>
      <trkpt lat="43.38623" lon="5.52078">
        <ele>460.1362</ele>
        <time>2010-10-10T09:54:38Z</time>
      </trkpt>
      <trkpt lat="43.38638" lon="5.52082">
        <ele>457.415924</ele>
        <time>2010-10-10T09:54:48Z</time>
      </trkpt>
      <trkpt lat="43.38627" lon="5.52095">
        <ele>465.615662</ele>
        <time>2010-10-10T09:55:16Z</time>
      </trkpt>
      <trkpt lat="43.38612" lon="5.52087">
        <ele>466.425873</ele>
        <time>2010-10-10T09:55:27Z</time>
      </trkpt>
      <trkpt lat="43.38597" lon="5.52077">
        <ele>466.590088</ele>
        <time>2010-10-10T09:55:37Z</time>
      </trkpt>
      <trkpt lat="43.38568" lon="5.52057">
        <ele>468.604614</ele>
        <time>2010-10-10T09:55:55Z</time>
      </trkpt>
      <trkpt lat="43.38555" lon="5.52047">
        <ele>469.921051</ele>
        <time>2010-10-10T09:56:04Z</time>
      </trkpt>
      <trkpt lat="43.38542" lon="5.5204">
        <ele>466.590973</ele>
        <time>2010-10-10T09:56:14Z</time>
      </trkpt>
      <trkpt lat="43.38532" lon="5.52053">
        <ele>468.691376</ele>
        <time>2010-10-10T09:56:21Z</time>
      </trkpt>
      <trkpt lat="43.38525" lon="5.52072">
        <ele>470.771576</ele>
        <time>2010-10-10T09:56:30Z</time>
      </trkpt>
      <trkpt lat="43.38523" lon="5.52093">
        <ele>472.784546</ele>
        <time>2010-10-10T09:56:40Z</time>
      </trkpt>
      <trkpt lat="43.38523" lon="5.52113">
        <ele>475.006104</ele>
        <time>2010-10-10T09:56:49Z</time>
      </trkpt>
      <trkpt lat="43.38525" lon="5.52137">
        <ele>475.571106</ele>
        <time>2010-10-10T09:56:59Z</time>
      </trkpt>
      <trkpt lat="43.38528" lon="5.52158">
        <ele>474.852203</ele>
        <time>2010-10-10T09:57:09Z</time>
      </trkpt>
      <trkpt lat="43.38533" lon="5.5218">
        <ele>475.077637</ele>
        <time>2010-10-10T09:57:18Z</time>
      </trkpt>
      <trkpt lat="43.38545" lon="5.52195">
        <ele>476.959747</ele>
        <time>2010-10-10T09:57:29Z</time>
      </trkpt>
      <trkpt lat="43.38558" lon="5.52205">
        <ele>478.835052</ele>
        <time>2010-10-10T09:57:41Z</time>
      </trkpt>
      <trkpt lat="43.38585" lon="5.52222">
        <ele>483.450592</ele>
        <time>2010-10-10T09:58:02Z</time>
      </trkpt>
      <trkpt lat="43.38598" lon="5.52233">
        <ele>484.62738</ele>
        <time>2010-10-10T09:58:13Z</time>
      </trkpt>
      <trkpt lat="43.38613" lon="5.52243">
        <ele>487.200073</ele>
        <time>2010-10-10T09:58:25Z</time>
      </trkpt>
      <trkpt lat="43.38623" lon="5.52257">
        <ele>488.637238</ele>
        <time>2010-10-10T09:58:34Z</time>
      </trkpt>
      <trkpt lat="43.38635" lon="5.52272">
        <ele>489.062317</ele>
        <time>2010-10-10T09:58:46Z</time>
      </trkpt>
      <trkpt lat="43.38647" lon="5.52282">
        <ele>488.849792</ele>
        <time>2010-10-10T09:58:56Z</time>
      </trkpt>
      <trkpt lat="43.38662" lon="5.52293">
        <ele>489.759308</ele>
        <time>2010-10-10T09:59:07Z</time>
      </trkpt>
      <trkpt lat="43.38677" lon="5.52308">
        <ele>493.019897</ele>
        <time>2010-10-10T09:59:20Z</time>
      </trkpt>
      <trkpt lat="43.38683" lon="5.52325">
        <ele>493.047119</ele>
        <time>2010-10-10T09:59:29Z</time>
      </trkpt>
      <trkpt lat="43.38693" lon="5.52338">
        <ele>489.851654</ele>
        <time>2010-10-10T09:59:39Z</time>
      </trkpt>
      <trkpt lat="43.38705" lon="5.52355">
        <ele>489.798767</ele>
        <time>2010-10-10T09:59:50Z</time>
      </trkpt>
      <trkpt lat="43.38713" lon="5.5237">
        <ele>492.766907</ele>
        <time>2010-10-10T10:00:00Z</time>
      </trkpt>
      <trkpt lat="43.38728" lon="5.52397">
        <ele>496.970184</ele>
        <time>2010-10-10T10:00:19Z</time>
      </trkpt>
      <trkpt lat="43.38735" lon="5.52417">
        <ele>495.170685</ele>
        <time>2010-10-10T10:00:30Z</time>
      </trkpt>
      <trkpt lat="43.38737" lon="5.52437">
        <ele>496.883606</ele>
        <time>2010-10-10T10:00:40Z</time>
      </trkpt>
      <trkpt lat="43.38738" lon="5.52462">
        <ele>497.840729</ele>
        <time>2010-10-10T10:00:51Z</time>
      </trkpt>
      <trkpt lat="43.38743" lon="5.52485">
        <ele>498.569489</ele>
        <time>2010-10-10T10:01:02Z</time>
      </trkpt>
      <trkpt lat="43.3875" lon="5.52505">
        <ele>500.371887</ele>
        <time>2010-10-10T10:01:13Z</time>
      </trkpt>
      <trkpt lat="43.38757" lon="5.52523">
        <ele>504.049896</ele>
        <time>2010-10-10T10:01:21Z</time>
      </trkpt>
      <trkpt lat="43.38763" lon="5.52542">
        <ele>507.763062</ele>
        <time>2010-10-10T10:01:31Z</time>
      </trkpt>
      <trkpt lat="43.38773" lon="5.52557">
        <ele>508.103455</ele>
        <time>2010-10-10T10:01:39Z</time>
      </trkpt>
      <trkpt lat="43.38785" lon="5.52583">
        <ele>508.546082</ele>
        <time>2010-10-10T10:01:49Z</time>
      </trkpt>
      <trkpt lat="43.38795" lon="5.52598">
        <ele>506.833954</ele>
        <time>2010-10-10T10:01:55Z</time>
      </trkpt>
      <trkpt lat="43.38803" lon="5.52613">
        <ele>504.91217</ele>
        <time>2010-10-10T10:02:02Z</time>
      </trkpt>
      <trkpt lat="43.388" lon="5.52632">
        <ele>506.780548</ele>
        <time>2010-10-10T10:02:11Z</time>
      </trkpt>
      <trkpt lat="43.38792" lon="5.5266">
        <ele>508.755798</ele>
        <time>2010-10-10T10:02:29Z</time>
      </trkpt>
      <trkpt lat="43.38785" lon="5.5268">
        <ele>511.024963</ele>
        <time>2010-10-10T10:02:41Z</time>
      </trkpt>
      <trkpt lat="43.38775" lon="5.52713">
        <ele>513.938782</ele>
        <time>2010-10-10T10:02:59Z</time>
      </trkpt>
      <trkpt lat="43.3877" lon="5.52732">
        <ele>515.164001</ele>
        <time>2010-10-10T10:03:09Z</time>
      </trkpt>
      <trkpt lat="43.38762" lon="5.52753">
        <ele>518.366882</ele>
        <time>2010-10-10T10:03:19Z</time>
      </trkpt>
      <trkpt lat="43.38755" lon="5.52773">
        <ele>519.401123</ele>
        <time>2010-10-10T10:03:30Z</time>
      </trkpt>
      <trkpt lat="43.38752" lon="5.52797">
        <ele>519.153931</ele>
        <time>2010-10-10T10:03:42Z</time>
      </trkpt>
      <trkpt lat="43.38748" lon="5.52818">
        <ele>519.513</ele>
        <time>2010-10-10T10:03:53Z</time>
      </trkpt>
      <trkpt lat="43.38745" lon="5.5284">
        <ele>521.420471</ele>
        <time>2010-10-10T10:04:04Z</time>
      </trkpt>
      <trkpt lat="43.38745" lon="5.5286">
        <ele>523.137268</ele>
        <time>2010-10-10T10:04:15Z</time>
      </trkpt>
      <trkpt lat="43.38747" lon="5.5288">
        <ele>525.427063</ele>
        <time>2010-10-10T10:04:28Z</time>
      </trkpt>
      <trkpt lat="43.3875" lon="5.52898">
        <ele>529.620178</ele>
        <time>2010-10-10T10:04:39Z</time>
      </trkpt>
      <trkpt lat="43.38757" lon="5.52923">
        <ele>534.070251</ele>
        <time>2010-10-10T10:04:57Z</time>
      </trkpt>
      <trkpt lat="43.38762" lon="5.52943">
        <ele>535.582031</ele>
        <time>2010-10-10T10:05:10Z</time>
      </trkpt>
      <trkpt lat="43.38767" lon="5.52962">
        <ele>537.584778</ele>
        <time>2010-10-10T10:05:20Z</time>
      </trkpt>
      <trkpt lat="43.38775" lon="5.52988">
        <ele>540.48114</ele>
        <time>2010-10-10T10:05:38Z</time>
      </trkpt>
      <trkpt lat="43.3878" lon="5.53007">
        <ele>542.856628</ele>
        <time>2010-10-10T10:05:51Z</time>
      </trkpt>
      <trkpt lat="43.38785" lon="5.53025">
        <ele>545.050903</ele>
        <time>2010-10-10T10:06:04Z</time>
      </trkpt>
      <trkpt lat="43.38795" lon="5.53052">
        <ele>549.231018</ele>
        <time>2010-10-10T10:06:21Z</time>
      </trkpt>
      <trkpt lat="43.38802" lon="5.5307">
        <ele>550.076233</ele>
        <time>2010-10-10T10:06:34Z</time>
      </trkpt>
      <trkpt lat="43.38808" lon="5.53087">
        <ele>550.228577</ele>
        <time>2010-10-10T10:06:47Z</time>
      </trkpt>
      <trkpt lat="43.38817" lon="5.53108">
        <ele>552.313721</ele>
        <time>2010-10-10T10:07:05Z</time>
      </trkpt>
      <trkpt lat="43.38823" lon="5.53125">
        <ele>555.149353</ele>
        <time>2010-10-10T10:07:16Z</time>
      </trkpt>
      <trkpt lat="43.38833" lon="5.53147">
        <ele>556.961243</ele>
        <time>2010-10-10T10:07:33Z</time>
      </trkpt>
      <trkpt lat="43.38845" lon="5.53172">
        <ele>560.38916</ele>
        <time>2010-10-10T10:07:51Z</time>
      </trkpt>
      <trkpt lat="43.38853" lon="5.53187">
        <ele>563.301025</ele>
        <time>2010-10-10T10:08:03Z</time>
      </trkpt>
      <trkpt lat="43.3886" lon="5.53205">
        <ele>564.443054</ele>
        <time>2010-10-10T10:13:21Z</time>
      </trkpt>
      <trkpt lat="43.38868" lon="5.53223">
        <ele>566.084229</ele>
        <time>2010-10-10T10:13:38Z</time>
      </trkpt>
      <trkpt lat="43.38878" lon="5.5324">
        <ele>569.602783</ele>
        <time>2010-10-10T10:13:57Z</time>
      </trkpt>
      <trkpt lat="43.38888" lon="5.53255">
        <ele>570.983765</ele>
        <time>2010-10-10T10:14:08Z</time>
      </trkpt>
      <trkpt lat="43.38898" lon="5.53268">
        <ele>570.943604</ele>
        <time>2010-10-10T10:14:19Z</time>
      </trkpt>
      <trkpt lat="43.3891" lon="5.53287">
        <ele>572.998108</ele>
        <time>2010-10-10T10:14:37Z</time>
      </trkpt>
      <trkpt lat="43.3892" lon="5.533">
        <ele>576.014771</ele>
        <time>2010-10-10T10:14:58Z</time>
      </trkpt>
      <trkpt lat="43.3893" lon="5.53313">
        <ele>577.979004</ele>
        <time>2010-10-10T10:15:23Z</time>
      </trkpt>
      <trkpt lat="43.38942" lon="5.53325">
        <ele>578.421204</ele>
        <time>2010-10-10T10:15:32Z</time>
      </trkpt>
      <trkpt lat="43.38957" lon="5.53333">
        <ele>578.534912</ele>
        <time>2010-10-10T10:15:43Z</time>
      </trkpt>
      <trkpt lat="43.38972" lon="5.53345">
        <ele>580.336365</ele>
        <time>2010-10-10T10:15:53Z</time>
      </trkpt>
      <trkpt lat="43.38987" lon="5.53355">
        <ele>582.417542</ele>
        <time>2010-10-10T10:16:04Z</time>
      </trkpt>
      <trkpt lat="43.39002" lon="5.53363">
        <ele>584.913818</ele>
        <time>2010-10-10T10:16:15Z</time>
      </trkpt>
      <trkpt lat="43.3902" lon="5.5337">
        <ele>588.293213</ele>
        <time>2010-10-10T10:16:28Z</time>
      </trkpt>
      <trkpt lat="43.39037" lon="5.5337">
        <ele>589.824158</ele>
        <time>2010-10-10T10:16:39Z</time>
      </trkpt>
      <trkpt lat="43.39053" lon="5.53373">
        <ele>592.339783</ele>
        <time>2010-10-10T10:16:52Z</time>
      </trkpt>
      <trkpt lat="43.39068" lon="5.53375">
        <ele>595.38269</ele>
        <time>2010-10-10T10:17:05Z</time>
      </trkpt>
      <trkpt lat="43.39083" lon="5.53377">
        <ele>598.571777</ele>
        <time>2010-10-10T10:17:34Z</time>
      </trkpt>
      <trkpt lat="43.39098" lon="5.53378">
        <ele>601.71582</ele>
        <time>2010-10-10T10:18:03Z</time>
      </trkpt>
      <trkpt lat="43.39113" lon="5.53375">
        <ele>602.941406</ele>
        <time>2010-10-10T10:18:21Z</time>
      </trkpt>
      <trkpt lat="43.39128" lon="5.5337">
        <ele>603.377319</ele>
        <time>2010-10-10T10:20:29Z</time>
      </trkpt>
      <trkpt lat="43.39142" lon="5.53373">
        <ele>605.556763</ele>
        <time>2010-10-10T10:20:38Z</time>
      </trkpt>
      <trkpt lat="43.39157" lon="5.5338">
        <ele>605.306885</ele>
        <time>2010-10-10T10:20:49Z</time>
      </trkpt>
      <trkpt lat="43.3917" lon="5.53387">
        <ele>604.238403</ele>
        <time>2010-10-10T10:20:58Z</time>
      </trkpt>
      <trkpt lat="43.39182" lon="5.53402">
        <ele>605.223022</ele>
        <time>2010-10-10T10:21:06Z</time>
      </trkpt>
      <trkpt lat="43.3919" lon="5.53422">
        <ele>607.659302</ele>
        <time>2010-10-10T10:21:15Z</time>
      </trkpt>
      <trkpt lat="43.39198" lon="5.53437">
        <ele>610.191956</ele>
        <time>2010-10-10T10:21:22Z</time>
      </trkpt>
      <trkpt lat="43.3921" lon="5.5345">
        <ele>612.687805</ele>
        <time>2010-10-10T10:21:35Z</time>
      </trkpt>
      <trkpt lat="43.39225" lon="5.53458">
        <ele>614.085693</ele>
        <time>2010-10-10T10:21:46Z</time>
      </trkpt>
      <trkpt lat="43.39245" lon="5.53458">
        <ele>614.119568</ele>
        <time>2010-10-10T10:22:21Z</time>
      </trkpt>
      <trkpt lat="43.39257" lon="5.53447">
        <ele>612.408691</ele>
        <time>2010-10-10T10:22:42Z</time>
      </trkpt>
      <trkpt lat="43.39267" lon="5.53433">
        <ele>611.939209</ele>
        <time>2010-10-10T10:23:06Z</time>
      </trkpt>
      <trkpt lat="43.39283" lon="5.53422">
        <ele>614.524475</ele>
        <time>2010-10-10T10:23:55Z</time>
      </trkpt>
      <trkpt lat="43.39288" lon="5.53402">
        <ele>616.680176</ele>
        <time>2010-10-10T10:24:06Z</time>
      </trkpt>
      <trkpt lat="43.39297" lon="5.5338">
        <ele>617.353271</ele>
        <time>2010-10-10T10:24:15Z</time>
      </trkpt>
      <trkpt lat="43.3931" lon="5.53372">
        <ele>621.943359</ele>
        <time>2010-10-10T10:24:32Z</time>
      </trkpt>
      <trkpt lat="43.39337" lon="5.5336">
        <ele>626.331543</ele>
        <time>2010-10-10T10:25:29Z</time>
      </trkpt>
      <trkpt lat="43.3935" lon="5.53353">
        <ele>625.202942</ele>
        <time>2010-10-10T10:25:48Z</time>
      </trkpt>
      <trkpt lat="43.39337" lon="5.53363">
        <ele>626.553711</ele>
        <time>2010-10-10T10:28:31Z</time>
      </trkpt>
      <trkpt lat="43.39323" lon="5.53373">
        <ele>627.98645</ele>
        <time>2010-10-10T10:28:42Z</time>
      </trkpt>
      <trkpt lat="43.39308" lon="5.53375">
        <ele>621.678162</ele>
        <time>2010-10-10T10:28:55Z</time>
      </trkpt>
      <trkpt lat="43.39295" lon="5.53387">
        <ele>617.623535</ele>
        <time>2010-10-10T10:29:04Z</time>
      </trkpt>
      <trkpt lat="43.3929" lon="5.53405">
        <ele>617.102783</ele>
        <time>2010-10-10T10:29:15Z</time>
      </trkpt>
      <trkpt lat="43.39285" lon="5.53427">
        <ele>614.647522</ele>
        <time>2010-10-10T10:29:32Z</time>
      </trkpt>
      <trkpt lat="43.39287" lon="5.53447">
        <ele>613.629761</ele>
        <time>2010-10-10T10:30:22Z</time>
      </trkpt>
      <trkpt lat="43.39302" lon="5.53455">
        <ele>610.296753</ele>
        <time>2010-10-10T10:31:07Z</time>
      </trkpt>
      <trkpt lat="43.39317" lon="5.53455">
        <ele>607.832214</ele>
        <time>2010-10-10T10:31:16Z</time>
      </trkpt>
      <trkpt lat="43.3934" lon="5.53453">
        <ele>602.992126</ele>
        <time>2010-10-10T10:31:27Z</time>
      </trkpt>
      <trkpt lat="43.39355" lon="5.53452">
        <ele>599.779785</ele>
        <time>2010-10-10T10:31:33Z</time>
      </trkpt>
      <trkpt lat="43.39372" lon="5.53453">
        <ele>594.64679</ele>
        <time>2010-10-10T10:31:45Z</time>
      </trkpt>
      <trkpt lat="43.39387" lon="5.53455">
        <ele>590.685974</ele>
        <time>2010-10-10T10:31:53Z</time>
      </trkpt>
      <trkpt lat="43.39405" lon="5.53455">
        <ele>586.551086</ele>
        <time>2010-10-10T10:32:00Z</time>
      </trkpt>
      <trkpt lat="43.39425" lon="5.53458">
        <ele>581.185425</ele>
        <time>2010-10-10T10:32:13Z</time>
      </trkpt>
      <trkpt lat="43.39445" lon="5.53455">
        <ele>576.177917</ele>
        <time>2010-10-10T10:32:21Z</time>
      </trkpt>
      <trkpt lat="43.39458" lon="5.53445">
        <ele>572.40332</ele>
        <time>2010-10-10T10:32:32Z</time>
      </trkpt>
      <trkpt lat="43.39473" lon="5.5344">
        <ele>566.398621</ele>
        <time>2010-10-10T10:32:43Z</time>
      </trkpt>
      <trkpt lat="43.39492" lon="5.53432">
        <ele>559.718628</ele>
        <time>2010-10-10T10:32:54Z</time>
      </trkpt>
      <trkpt lat="43.39508" lon="5.53418">
        <ele>554.99054</ele>
        <time>2010-10-10T10:33:12Z</time>
      </trkpt>
      <trkpt lat="43.39523" lon="5.53417">
        <ele>550.643799</ele>
        <time>2010-10-10T10:33:39Z</time>
      </trkpt>
      <trkpt lat="43.39538" lon="5.53415">
        <ele>546.674988</ele>
        <time>2010-10-10T10:33:50Z</time>
      </trkpt>
      <trkpt lat="43.39552" lon="5.53407">
        <ele>542.989929</ele>
        <time>2010-10-10T10:34:33Z</time>
      </trkpt>
      <trkpt lat="43.39565" lon="5.534">
        <ele>541.624268</ele>
        <time>2010-10-10T10:34:44Z</time>
      </trkpt>
      <trkpt lat="43.3958" lon="5.53393">
        <ele>541.214661</ele>
        <time>2010-10-10T10:34:51Z</time>
      </trkpt>
      <trkpt lat="43.39573" lon="5.53373">
        <ele>541.756958</ele>
        <time>2010-10-10T10:35:53Z</time>
      </trkpt>
      <trkpt lat="43.39568" lon="5.53355">
        <ele>541.179749</ele>
        <time>2010-10-10T10:36:06Z</time>
      </trkpt>
      <trkpt lat="43.39562" lon="5.53337">
        <ele>539.522949</ele>
        <time>2010-10-10T10:36:15Z</time>
      </trkpt>
      <trkpt lat="43.39555" lon="5.53313">
        <ele>536.975525</ele>
        <time>2010-10-10T10:36:26Z</time>
      </trkpt>
      <trkpt lat="43.3955" lon="5.53292">
        <ele>535.353394</ele>
        <time>2010-10-10T10:36:35Z</time>
      </trkpt>
      <trkpt lat="43.39548" lon="5.53267">
        <ele>531.565063</ele>
        <time>2010-10-10T10:36:43Z</time>
      </trkpt>
      <trkpt lat="43.39545" lon="5.53245">
        <ele>528.880493</ele>
        <time>2010-10-10T10:36:52Z</time>
      </trkpt>
      <trkpt lat="43.39545" lon="5.53222">
        <ele>525.73645</ele>
        <time>2010-10-10T10:37:03Z</time>
      </trkpt>
      <trkpt lat="43.39543" lon="5.532">
        <ele>524.099426</ele>
        <time>2010-10-10T10:37:14Z</time>
      </trkpt>
      <trkpt lat="43.39545" lon="5.53178">
        <ele>521.503479</ele>
        <time>2010-10-10T10:38:09Z</time>
      </trkpt>
      <trkpt lat="43.39543" lon="5.53158">
        <ele>520.426758</ele>
        <time>2010-10-10T10:38:20Z</time>
      </trkpt>
      <trkpt lat="43.3954" lon="5.5314">
        <ele>520.333557</ele>
        <time>2010-10-10T10:38:31Z</time>
      </trkpt>
      <trkpt lat="43.39545" lon="5.53122">
        <ele>517.699036</ele>
        <time>2010-10-10T10:38:52Z</time>
      </trkpt>
      <trkpt lat="43.39555" lon="5.53085">
        <ele>512.291199</ele>
        <time>2010-10-10T10:39:10Z</time>
      </trkpt>
      <trkpt lat="43.39557" lon="5.53063">
        <ele>510.230835</ele>
        <time>2010-10-10T10:39:21Z</time>
      </trkpt>
      <trkpt lat="43.39552" lon="5.5304">
        <ele>510.10498</ele>
        <time>2010-10-10T10:39:30Z</time>
      </trkpt>
      <trkpt lat="43.39552" lon="5.53018">
        <ele>508.957794</ele>
        <time>2010-10-10T10:39:39Z</time>
      </trkpt>
      <trkpt lat="43.39543" lon="5.52985">
        <ele>507.860413</ele>
        <time>2010-10-10T10:39:56Z</time>
      </trkpt>
      <trkpt lat="43.3954" lon="5.52967">
        <ele>507.882416</ele>
        <time>2010-10-10T10:40:05Z</time>
      </trkpt>
      <trkpt lat="43.39535" lon="5.52947">
        <ele>506.933746</ele>
        <time>2010-10-10T10:40:16Z</time>
      </trkpt>
      <trkpt lat="43.39528" lon="5.52918">
        <ele>503.43512</ele>
        <time>2010-10-10T10:40:34Z</time>
      </trkpt>
      <trkpt lat="43.39522" lon="5.52897">
        <ele>501.99939</ele>
        <time>2010-10-10T10:40:55Z</time>
      </trkpt>
      <trkpt lat="43.3951" lon="5.52877">
        <ele>502.157013</ele>
        <time>2010-10-10T10:41:32Z</time>
      </trkpt>
      <trkpt lat="43.39502" lon="5.52862">
        <ele>501.305664</ele>
        <time>2010-10-10T10:41:49Z</time>
      </trkpt>
      <trkpt lat="43.39495" lon="5.52833">
        <ele>498.193024</ele>
        <time>2010-10-10T10:42:07Z</time>
      </trkpt>
      <trkpt lat="43.39493" lon="5.5281">
        <ele>495.152008</ele>
        <time>2010-10-10T10:42:28Z</time>
      </trkpt>
      <trkpt lat="43.3949" lon="5.52787">
        <ele>491.144043</ele>
        <time>2010-10-10T10:42:39Z</time>
      </trkpt>
      <trkpt lat="43.39478" lon="5.52772">
        <ele>483.832489</ele>
        <time>2010-10-10T10:43:05Z</time>
      </trkpt>
      <trkpt lat="43.3948" lon="5.52738">
        <ele>482.127075</ele>
        <time>2010-10-10T10:43:23Z</time>
      </trkpt>
      <trkpt lat="43.39478" lon="5.52717">
        <ele>480.760773</ele>
        <time>2010-10-10T10:43:32Z</time>
      </trkpt>
      <trkpt lat="43.39475" lon="5.52695">
        <ele>480.789215</ele>
        <time>2010-10-10T10:43:42Z</time>
      </trkpt>
      <trkpt lat="43.39473" lon="5.52672">
        <ele>480.235657</ele>
        <time>2010-10-10T10:43:53Z</time>
      </trkpt>
      <trkpt lat="43.39467" lon="5.5265">
        <ele>480.167328</ele>
        <time>2010-10-10T10:44:10Z</time>
      </trkpt>
      <trkpt lat="43.39463" lon="5.52632">
        <ele>478.3479</ele>
        <time>2010-10-10T10:46:49Z</time>
      </trkpt>
      <trkpt lat="43.39457" lon="5.52615">
        <ele>474.295013</ele>
        <time>2010-10-10T10:49:56Z</time>
      </trkpt>
      <trkpt lat="43.3945" lon="5.52597">
        <ele>469.334839</ele>
        <time>2010-10-10T10:50:21Z</time>
      </trkpt>
      <trkpt lat="43.39447" lon="5.52575">
        <ele>465.89151</ele>
        <time>2010-10-10T10:50:54Z</time>
      </trkpt>
      <trkpt lat="43.3944" lon="5.52552">
        <ele>459.990051</ele>
        <time>2010-10-10T10:51:35Z</time>
      </trkpt>
      <trkpt lat="43.39428" lon="5.52537">
        <ele>458.982635</ele>
        <time>2010-10-10T10:51:44Z</time>
      </trkpt>
      <trkpt lat="43.39415" lon="5.52522">
        <ele>455.709839</ele>
        <time>2010-10-10T10:51:57Z</time>
      </trkpt>
      <trkpt lat="43.39407" lon="5.52505">
        <ele>449.577026</ele>
        <time>2010-10-10T10:52:09Z</time>
      </trkpt>
      <trkpt lat="43.39397" lon="5.52492">
        <ele>441.578613</ele>
        <time>2010-10-10T10:52:29Z</time>
      </trkpt>
      <trkpt lat="43.39387" lon="5.52475">
        <ele>439.996704</ele>
        <time>2010-10-10T10:52:37Z</time>
      </trkpt>
      <trkpt lat="43.3938" lon="5.52458">
        <ele>437.35733</ele>
        <time>2010-10-10T10:52:44Z</time>
      </trkpt>
      <trkpt lat="43.39372" lon="5.52435">
        <ele>431.543182</ele>
        <time>2010-10-10T10:52:52Z</time>
      </trkpt>
      <trkpt lat="43.39362" lon="5.52418">
        <ele>427.043823</ele>
        <time>2010-10-10T10:53:02Z</time>
      </trkpt>
      <trkpt lat="43.39345" lon="5.52398">
        <ele>424.04538</ele>
        <time>2010-10-10T10:53:14Z</time>
      </trkpt>
      <trkpt lat="43.39335" lon="5.52383">
        <ele>421.009796</ele>
        <time>2010-10-10T10:53:22Z</time>
      </trkpt>
      <trkpt lat="43.39302" lon="5.52338">
        <ele>413.545441</ele>
        <time>2010-10-10T10:53:46Z</time>
      </trkpt>
      <trkpt lat="43.39287" lon="5.52327">
        <ele>412.14267</ele>
        <time>2010-10-10T10:53:55Z</time>
      </trkpt>
      <trkpt lat="43.39238" lon="5.52293">
        <ele>411.34024</ele>
        <time>2010-10-10T10:54:17Z</time>
      </trkpt>
      <trkpt lat="43.39242" lon="5.52273">
        <ele>407.814026</ele>
        <time>2010-10-10T10:54:26Z</time>
      </trkpt>
      <trkpt lat="43.3924" lon="5.52252">
        <ele>406.223328</ele>
        <time>2010-10-10T10:54:36Z</time>
      </trkpt>
      <trkpt lat="43.3924" lon="5.52228">
        <ele>403.990967</ele>
        <time>2010-10-10T10:54:48Z</time>
      </trkpt>
      <trkpt lat="43.39243" lon="5.5221">
        <ele>401.841705</ele>
        <time>2010-10-10T10:54:56Z</time>
      </trkpt>
      <trkpt lat="43.39237" lon="5.5219">
        <ele>398.09729</ele>
        <time>2010-10-10T10:55:05Z</time>
      </trkpt>
      <trkpt lat="43.39232" lon="5.52172">
        <ele>394.014252</ele>
        <time>2010-10-10T10:55:16Z</time>
      </trkpt>
      <trkpt lat="43.39225" lon="5.52147">
        <ele>398.469727</ele>
        <time>2010-10-10T10:55:34Z</time>
      </trkpt>
      <trkpt lat="43.39193" lon="5.52143">
        <ele>389.913696</ele>
        <time>2010-10-10T10:57:51Z</time>
      </trkpt>
      <trkpt lat="43.39173" lon="5.5215">
        <ele>384.048462</ele>
        <time>2010-10-10T10:58:09Z</time>
      </trkpt>
      <trkpt lat="43.39162" lon="5.52138">
        <ele>386.246185</ele>
        <time>2010-10-10T10:58:41Z</time>
      </trkpt>
      <trkpt lat="43.39147" lon="5.52138">
        <ele>385.208038</ele>
        <time>2010-10-10T10:58:53Z</time>
      </trkpt>
      <trkpt lat="43.39132" lon="5.52138">
        <ele>384.319702</ele>
        <time>2010-10-10T10:59:03Z</time>
      </trkpt>
      <trkpt lat="43.39113" lon="5.52133">
        <ele>383.498993</ele>
        <time>2010-10-10T10:59:15Z</time>
      </trkpt>
      <trkpt lat="43.39098" lon="5.52133">
        <ele>382.627014</ele>
        <time>2010-10-10T10:59:22Z</time>
      </trkpt>
      <trkpt lat="43.39082" lon="5.52132">
        <ele>381.137329</ele>
        <time>2010-10-10T10:59:33Z</time>
      </trkpt>
      <trkpt lat="43.39068" lon="5.52128">
        <ele>379.403015</ele>
        <time>2010-10-10T10:59:39Z</time>
      </trkpt>
      <trkpt lat="43.39052" lon="5.52118">
        <ele>375.812225</ele>
        <time>2010-10-10T10:59:47Z</time>
      </trkpt>
      <trkpt lat="43.39033" lon="5.52112">
        <ele>374.22876</ele>
        <time>2010-10-10T10:59:55Z</time>
      </trkpt>
      <trkpt lat="43.39022" lon="5.52095">
        <ele>369.690582</ele>
        <time>2010-10-10T11:00:04Z</time>
      </trkpt>
      <trkpt lat="43.39008" lon="5.52082">
        <ele>368.42923</ele>
        <time>2010-10-10T11:00:12Z</time>
      </trkpt>
      <trkpt lat="43.38995" lon="5.52073">
        <ele>369.083069</ele>
        <time>2010-10-10T11:00:21Z</time>
      </trkpt>
      <trkpt lat="43.38983" lon="5.52052">
        <ele>368.601379</ele>
        <time>2010-10-10T11:00:28Z</time>
      </trkpt>
      <trkpt lat="43.38972" lon="5.5204">
        <ele>365.661926</ele>
        <time>2010-10-10T11:00:36Z</time>
      </trkpt>
      <trkpt lat="43.38957" lon="5.52028">
        <ele>360.812012</ele>
        <time>2010-10-10T11:00:45Z</time>
      </trkpt>
      <trkpt lat="43.38942" lon="5.52027">
        <ele>360.580383</ele>
        <time>2010-10-10T11:00:51Z</time>
      </trkpt>
      <trkpt lat="43.38902" lon="5.52012">
        <ele>359.999634</ele>
        <time>2010-10-10T11:01:21Z</time>
      </trkpt>
      <trkpt lat="43.3885" lon="5.5197">
        <ele>358.267426</ele>
        <time>2010-10-10T11:01:41Z</time>
      </trkpt>
      <trkpt lat="43.38833" lon="5.51972">
        <ele>357.39798</ele>
        <time>2010-10-10T11:01:48Z</time>
      </trkpt>
      <trkpt lat="43.38823" lon="5.51955">
        <ele>355.112549</ele>
        <time>2010-10-10T11:01:56Z</time>
      </trkpt>
      <trkpt lat="43.38823" lon="5.51932">
        <ele>355.275055</ele>
        <time>2010-10-10T11:02:02Z</time>
      </trkpt>
      <trkpt lat="43.38808" lon="5.51922">
        <ele>355.877289</ele>
        <time>2010-10-10T11:02:06Z</time>
      </trkpt>
      <trkpt lat="43.388" lon="5.51907">
        <ele>353.817566</ele>
        <time>2010-10-10T11:03:01Z</time>
      </trkpt>
      <trkpt lat="43.38797" lon="5.51885">
        <ele>351.134674</ele>
        <time>2010-10-10T11:03:09Z</time>
      </trkpt>
      <trkpt lat="43.38797" lon="5.51858">
        <ele>351.736572</ele>
        <time>2010-10-10T11:03:16Z</time>
      </trkpt>
      <trkpt lat="43.38788" lon="5.51835">
        <ele>347.462585</ele>
        <time>2010-10-10T11:03:35Z</time>
      </trkpt>
      <trkpt lat="43.38778" lon="5.5182">
        <ele>347.613464</ele>
        <time>2010-10-10T11:03:54Z</time>
      </trkpt>
      <trkpt lat="43.3877" lon="5.51805">
        <ele>348.234833</ele>
        <time>2010-10-10T11:04:12Z</time>
      </trkpt>
      <trkpt lat="43.38752" lon="5.51788">
        <ele>343.873413</ele>
        <time>2010-10-10T11:05:00Z</time>
      </trkpt>
      <trkpt lat="43.38733" lon="5.51772">
        <ele>339.432007</ele>
        <time>2010-10-10T11:05:27Z</time>
      </trkpt>
      <trkpt lat="43.38725" lon="5.51752">
        <ele>339.789581</ele>
        <time>2010-10-10T11:05:36Z</time>
      </trkpt>
      <trkpt lat="43.38712" lon="5.51737">
        <ele>339.210266</ele>
        <time>2010-10-10T11:05:48Z</time>
      </trkpt>
      <trkpt lat="43.387" lon="5.51722">
        <ele>336.686676</ele>
        <time>2010-10-10T11:05:56Z</time>
      </trkpt>
      <trkpt lat="43.38695" lon="5.51698">
        <ele>335.822235</ele>
        <time>2010-10-10T11:06:04Z</time>
      </trkpt>
      <trkpt lat="43.38688" lon="5.51667">
        <ele>336.590179</ele>
        <time>2010-10-10T11:06:11Z</time>
      </trkpt>
      <trkpt lat="43.38665" lon="5.5157">
        <ele>331.423859</ele>
        <time>2010-10-10T11:06:36Z</time>
      </trkpt>
      <trkpt lat="43.38658" lon="5.51552">
        <ele>332.137573</ele>
        <time>2010-10-10T11:06:42Z</time>
      </trkpt>
      <trkpt lat="43.38645" lon="5.51545">
        <ele>331.360901</ele>
        <time>2010-10-10T11:06:46Z</time>
      </trkpt>
      <trkpt lat="43.38632" lon="5.5154">
        <ele>329.639313</ele>
        <time>2010-10-10T11:06:50Z</time>
      </trkpt>
      <trkpt lat="43.3861" lon="5.51525">
        <ele>325.589661</ele>
        <time>2010-10-10T11:06:57Z</time>
      </trkpt>
      <trkpt lat="43.38592" lon="5.51507">
        <ele>324.430176</ele>
        <time>2010-10-10T11:07:04Z</time>
      </trkpt>
      <trkpt lat="43.3858" lon="5.51488">
        <ele>324.702362</ele>
        <time>2010-10-10T11:07:08Z</time>
      </trkpt>
      <trkpt lat="43.38555" lon="5.51445">
        <ele>322.748901</ele>
        <time>2010-10-10T11:07:16Z</time>
      </trkpt>
      <trkpt lat="43.38555" lon="5.51422">
        <ele>322.401062</ele>
        <time>2010-10-10T11:07:20Z</time>
      </trkpt>
      <trkpt lat="43.38562" lon="5.51392">
        <ele>321.651337</ele>
        <time>2010-10-10T11:07:26Z</time>
      </trkpt>
      <trkpt lat="43.38565" lon="5.51372">
        <ele>321.549744</ele>
        <time>2010-10-10T11:07:29Z</time>
      </trkpt>
      <trkpt lat="43.3856" lon="5.51342">
        <ele>321.372589</ele>
        <time>2010-10-10T11:07:34Z</time>
      </trkpt>
      <trkpt lat="43.38555" lon="5.51318">
        <ele>320.768768</ele>
        <time>2010-10-10T11:07:37Z</time>
      </trkpt>
      <trkpt lat="43.38545" lon="5.513">
        <ele>319.446564</ele>
        <time>2010-10-10T11:07:41Z</time>
      </trkpt>
      <trkpt lat="43.38528" lon="5.51273">
        <ele>317.31958</ele>
        <time>2010-10-10T11:07:48Z</time>
      </trkpt>
      <trkpt lat="43.3852" lon="5.51248">
        <ele>317.315674</ele>
        <time>2010-10-10T11:07:52Z</time>
      </trkpt>
      <trkpt lat="43.38512" lon="5.5122">
        <ele>315.600769</ele>
        <time>2010-10-10T11:07:56Z</time>
      </trkpt>
      <trkpt lat="43.38498" lon="5.5118">
        <ele>309.947876</ele>
        <time>2010-10-10T11:08:02Z</time>
      </trkpt>
      <trkpt lat="43.38487" lon="5.51152">
        <ele>305.526031</ele>
        <time>2010-10-10T11:08:06Z</time>
      </trkpt>
      <trkpt lat="43.3849" lon="5.51133">
        <ele>301.556274</ele>
        <time>2010-10-10T11:08:12Z</time>
      </trkpt>
      <trkpt lat="43.38505" lon="5.51105">
        <ele>304.221924</ele>
        <time>2010-10-10T11:08:20Z</time>
      </trkpt>
      <trkpt lat="43.385" lon="5.51083">
        <ele>301.233002</ele>
        <time>2010-10-10T11:08:24Z</time>
      </trkpt>
      <trkpt lat="43.38492" lon="5.5105">
        <ele>298.551361</ele>
        <time>2010-10-10T11:08:31Z</time>
      </trkpt>
      <trkpt lat="43.3849" lon="5.51025">
        <ele>298.867706</ele>
        <time>2010-10-10T11:08:35Z</time>
      </trkpt>
      <trkpt lat="43.3849" lon="5.51">
        <ele>298.46048</ele>
        <time>2010-10-10T11:08:39Z</time>
      </trkpt>
      <trkpt lat="43.38488" lon="5.50973">
        <ele>298.155243</ele>
        <time>2010-10-10T11:08:43Z</time>
      </trkpt>
      <trkpt lat="43.38482" lon="5.50952">
        <ele>298.524628</ele>
        <time>2010-10-10T11:08:47Z</time>
      </trkpt>
      <trkpt lat="43.3848" lon="5.50928">
        <ele>297.889008</ele>
        <time>2010-10-10T11:08:51Z</time>
      </trkpt>
      <trkpt lat="43.38482" lon="5.50905">
        <ele>296.811035</ele>
        <time>2010-10-10T11:08:55Z</time>
      </trkpt>
      <trkpt lat="43.38468" lon="5.50897">
        <ele>297.58136</ele>
        <time>2010-10-10T11:10:17Z</time>
      </trkpt>
      <trkpt lat="43.3846" lon="5.50868">
        <ele>297.015137</ele>
        <time>2010-10-10T11:10:51Z</time>
      </trkpt>
      <trkpt lat="43.3844" lon="5.50842">
        <ele>295.563416</ele>
        <time>2010-10-10T11:11:00Z</time>
      </trkpt>
      <trkpt lat="43.38413" lon="5.50825">
        <ele>292.479919</ele>
        <time>2010-10-10T11:11:05Z</time>
      </trkpt>
      <trkpt lat="43.38387" lon="5.50813">
        <ele>292.929108</ele>
        <time>2010-10-10T11:11:12Z</time>
      </trkpt>
      <trkpt lat="43.38355" lon="5.50782">
        <ele>295.449951</ele>
      </trkpt>
      <trkpt lat="43.38338" lon="5.50779">
        <ele>295.021515</ele>
      </trkpt>
      <trkpt lat="43.38328" lon="5.50785">
        <ele>293.683594</ele>
      </trkpt>
      <trkpt lat="43.38291" lon="5.50823">
        <ele>286.047058</ele>
      </trkpt>
      <trkpt lat="43.38274" lon="5.50823">
        <ele>284.677551</ele>
      </trkpt>
      <trkpt lat="43.38265" lon="5.50807">
        <ele>284.39328</ele>
        <time>2010-10-10T11:11:41Z</time>
      </trkpt>
      <trkpt lat="43.38255" lon="5.50757">
        <ele>283.111298</ele>
      </trkpt>
      <trkpt lat="43.3824" lon="5.50743">
        <ele>280.812347</ele>
        <time>2010-10-10T11:11:53Z</time>
      </trkpt>
      <trkpt lat="43.38213" lon="5.50725">
        <ele>280.319519</ele>
        <time>2010-10-10T11:12:00Z</time>
      </trkpt>
      <trkpt lat="43.38185" lon="5.50635">
        <ele>281.401154</ele>
        <time>2010-10-10T11:12:17Z</time>
      </trkpt>
      <trkpt lat="43.38167" lon="5.50625">
        <ele>280.129791</ele>
        <time>2010-10-10T11:12:22Z</time>
      </trkpt>
      <trkpt lat="43.38142" lon="5.50637">
        <ele>277.984589</ele>
        <time>2010-10-10T11:12:27Z</time>
      </trkpt>
      <trkpt lat="43.381" lon="5.50662">
        <ele>277.710815</ele>
        <time>2010-10-10T11:12:39Z</time>
      </trkpt>
      <trkpt lat="43.38075" lon="5.50663">
        <ele>277.469666</ele>
        <time>2010-10-10T11:12:44Z</time>
      </trkpt>
      <trkpt lat="43.38045" lon="5.50667">
        <ele>276.645599</ele>
        <time>2010-10-10T11:12:53Z</time>
      </trkpt>
      <trkpt lat="43.38003" lon="5.5068">
        <ele>273.585449</ele>
        <time>2010-10-10T11:13:04Z</time>
      </trkpt>
      <trkpt lat="43.37953" lon="5.50715">
        <ele>271.158173</ele>
        <time>2010-10-10T11:13:23Z</time>
      </trkpt>
      <trkpt lat="43.37942" lon="5.50727">
        <ele>271.583313</ele>
        <time>2010-10-10T11:13:27Z</time>
      </trkpt>
      <trkpt lat="43.37927" lon="5.50727">
        <ele>271.953125</ele>
        <time>2010-10-10T11:13:31Z</time>
      </trkpt>
      <trkpt lat="43.37907" lon="5.5072">
        <ele>272.481232</ele>
        <time>2010-10-10T11:13:36Z</time>
      </trkpt>
      <trkpt lat="43.37888" lon="5.50715">
        <ele>273.143524</ele>
        <time>2010-10-10T11:13:39Z</time>
      </trkpt>
      <trkpt lat="43.37875" lon="5.50707">
        <ele>272.333557</ele>
        <time>2010-10-10T11:13:44Z</time>
      </trkpt>
      <trkpt lat="43.37862" lon="5.50693">
        <ele>271.290588</ele>
        <time>2010-10-10T11:13:48Z</time>
      </trkpt>
      <trkpt lat="43.37847" lon="5.5067">
        <ele>267.063416</ele>
        <time>2010-10-10T11:14:11Z</time>
      </trkpt>
      <trkpt lat="43.3783" lon="5.50645">
        <ele>265.924042</ele>
        <time>2010-10-10T11:14:17Z</time>
      </trkpt>
      <trkpt lat="43.37823" lon="5.50625">
        <ele>266.224121</ele>
        <time>2010-10-10T11:14:19Z</time>
      </trkpt>
      <trkpt lat="43.37818" lon="5.50595">
        <ele>264.892487</ele>
        <time>2010-10-10T11:14:23Z</time>
      </trkpt>
      <trkpt lat="43.37807" lon="5.50557">
        <ele>264.72113</ele>
        <time>2010-10-10T11:14:30Z</time>
      </trkpt>
      <trkpt lat="43.37795" lon="5.50535">
        <ele>263.373566</ele>
        <time>2010-10-10T11:14:34Z</time>
      </trkpt>
      <trkpt lat="43.37785" lon="5.50522">
        <ele>263.613434</ele>
        <time>2010-10-10T11:14:36Z</time>
      </trkpt>
      <trkpt lat="43.37768" lon="5.50502">
        <ele>264.061707</ele>
        <time>2010-10-10T11:14:41Z</time>
      </trkpt>
      <trkpt lat="43.37755" lon="5.5049">
        <ele>263.393646</ele>
        <time>2010-10-10T11:14:46Z</time>
      </trkpt>
      <trkpt lat="43.37728" lon="5.50468">
        <ele>262.205383</ele>
        <time>2010-10-10T11:14:50Z</time>
      </trkpt>
      <trkpt lat="43.37703" lon="5.50465">
        <ele>263.105896</ele>
        <time>2010-10-10T11:14:54Z</time>
      </trkpt>
      <trkpt lat="43.37685" lon="5.50457">
        <ele>263.646149</ele>
        <time>2010-10-10T11:14:59Z</time>
      </trkpt>
      <trkpt lat="43.37662" lon="5.50438">
        <ele>260.960449</ele>
        <time>2010-10-10T11:15:04Z</time>
      </trkpt>
      <trkpt lat="43.37607" lon="5.50418">
        <ele>259.515533</ele>
        <time>2010-10-10T11:15:16Z</time>
      </trkpt>
      <trkpt lat="43.37592" lon="5.50415">
        <ele>258.832214</ele>
        <time>2010-10-10T11:15:20Z</time>
      </trkpt>
      <trkpt lat="43.37572" lon="5.50417">
        <ele>259.457184</ele>
        <time>2010-10-10T11:15:24Z</time>
      </trkpt>
      <trkpt lat="43.37555" lon="5.50423">
        <ele>259.482971</ele>
        <time>2010-10-10T11:15:31Z</time>
      </trkpt>
      <trkpt lat="43.37532" lon="5.5043">
        <ele>258.331757</ele>
        <time>2010-10-10T11:15:35Z</time>
      </trkpt>
      <trkpt lat="43.37515" lon="5.50435">
        <ele>258.669739</ele>
        <time>2010-10-10T11:15:39Z</time>
      </trkpt>
      <trkpt lat="43.37498" lon="5.50435">
        <ele>258.89386</ele>
        <time>2010-10-10T11:15:41Z</time>
      </trkpt>
      <trkpt lat="43.37477" lon="5.50432">
        <ele>258.506927</ele>
        <time>2010-10-10T11:15:45Z</time>
      </trkpt>
      <trkpt lat="43.37455" lon="5.50423">
        <ele>258.281281</ele>
        <time>2010-10-10T11:15:49Z</time>
      </trkpt>
      <trkpt lat="43.37438" lon="5.50402">
        <ele>253.517685</ele>
        <time>2010-10-10T11:15:53Z</time>
      </trkpt>
      <trkpt lat="43.3742" lon="5.50385">
        <ele>254.414948</ele>
        <time>2010-10-10T11:15:57Z</time>
      </trkpt>
      <trkpt lat="43.37395" lon="5.50383">
        <ele>253.589798</ele>
        <time>2010-10-10T11:16:01Z</time>
      </trkpt>
      <trkpt lat="43.37372" lon="5.50395">
        <ele>250.308945</ele>
        <time>2010-10-10T11:16:05Z</time>
      </trkpt>
      <trkpt lat="43.37358" lon="5.50398">
        <ele>250.559219</ele>
        <time>2010-10-10T11:16:07Z</time>
      </trkpt>
      <trkpt lat="43.37338" lon="5.50395">
        <ele>249.283417</ele>
        <time>2010-10-10T11:16:11Z</time>
      </trkpt>
      <trkpt lat="43.37328" lon="5.50378">
        <ele>252.244873</ele>
        <time>2010-10-10T11:16:37Z</time>
      </trkpt>
      <trkpt lat="43.37305" lon="5.50378">
        <ele>252.418732</ele>
        <time>2010-10-10T11:16:43Z</time>
      </trkpt>
      <trkpt lat="43.3729" lon="5.50393">
        <ele>248.68512</ele>
        <time>2010-10-10T11:16:47Z</time>
      </trkpt>
      <trkpt lat="43.37275" lon="5.50412">
        <ele>247.989304</ele>
        <time>2010-10-10T11:16:51Z</time>
      </trkpt>
      <trkpt lat="43.37258" lon="5.5042">
        <ele>245.64827</ele>
        <time>2010-10-10T11:16:55Z</time>
      </trkpt>
      <trkpt lat="43.37242" lon="5.50413">
        <ele>245.512512</ele>
        <time>2010-10-10T11:16:59Z</time>
      </trkpt>
      <trkpt lat="43.3723" lon="5.50393">
        <ele>244.142212</ele>
        <time>2010-10-10T11:17:03Z</time>
      </trkpt>
      <trkpt lat="43.37215" lon="5.50363">
        <ele>241.656448</ele>
        <time>2010-10-10T11:17:10Z</time>
      </trkpt>
      <trkpt lat="43.37203" lon="5.50335">
        <ele>242.359085</ele>
        <time>2010-10-10T11:17:14Z</time>
      </trkpt>
      <trkpt lat="43.37205" lon="5.50307">
        <ele>242.397736</ele>
        <time>2010-10-10T11:17:18Z</time>
      </trkpt>
      <trkpt lat="43.37207" lon="5.50253">
        <ele>243.71933</ele>
        <time>2010-10-10T11:17:24Z</time>
      </trkpt>
      <trkpt lat="43.3722" lon="5.50245">
        <ele>240.972382</ele>
        <time>2010-10-10T11:17:26Z</time>
      </trkpt>
      <trkpt lat="43.37237" lon="5.50238">
        <ele>239.861221</ele>
        <time>2010-10-10T11:17:30Z</time>
      </trkpt>
      <trkpt lat="43.3725" lon="5.50222">
        <ele>238.137955</ele>
        <time>2010-10-10T11:17:34Z</time>
      </trkpt>
      <trkpt lat="43.37258" lon="5.50195">
        <ele>236.672256</ele>
        <time>2010-10-10T11:17:38Z</time>
      </trkpt>
      <trkpt lat="43.37248" lon="5.5017">
        <ele>237.79332</ele>
        <time>2010-10-10T11:17:42Z</time>
      </trkpt>
      <trkpt lat="43.37232" lon="5.5015">
        <ele>236.843124</ele>
        <time>2010-10-10T11:17:46Z</time>
      </trkpt>
      <trkpt lat="43.37225" lon="5.50132">
        <ele>237.346741</ele>
        <time>2010-10-10T11:17:51Z</time>
      </trkpt>
      <trkpt lat="43.37208" lon="5.50115">
        <ele>238.691345</ele>
        <time>2010-10-10T11:18:09Z</time>
      </trkpt>
      <trkpt lat="43.37192" lon="5.50108">
        <ele>238.423492</ele>
        <time>2010-10-10T11:18:20Z</time>
      </trkpt>
      <trkpt lat="43.37182" lon="5.50093">
        <ele>240.380798</ele>
        <time>2010-10-10T11:18:30Z</time>
      </trkpt>
      <trkpt lat="43.37172" lon="5.50077">
        <ele>242.664658</ele>
        <time>2010-10-10T11:18:41Z</time>
      </trkpt>
      <trkpt lat="43.37158" lon="5.50062">
        <ele>247.164169</ele>
        <time>2010-10-10T11:18:51Z</time>
      </trkpt>
      <trkpt lat="43.37143" lon="5.50057">
        <ele>247.66423</ele>
        <time>2010-10-10T11:19:01Z</time>
      </trkpt>
      <trkpt lat="43.37128" lon="5.50057">
        <ele>246.392487</ele>
        <time>2010-10-10T11:19:11Z</time>
      </trkpt>
      <trkpt lat="43.37113" lon="5.50058">
        <ele>248.503586</ele>
        <time>2010-10-10T11:19:22Z</time>
      </trkpt>
      <trkpt lat="43.371" lon="5.50067">
        <ele>247.967789</ele>
        <time>2010-10-10T11:19:32Z</time>
      </trkpt>
      <trkpt lat="43.37087" lon="5.5008">
        <ele>246.521164</ele>
        <time>2010-10-10T11:19:40Z</time>
      </trkpt>
      <trkpt lat="43.37073" lon="5.50085">
        <ele>245.420914</ele>
        <time>2010-10-10T11:19:49Z</time>
      </trkpt>
      <trkpt lat="43.37057" lon="5.50087">
        <ele>244.909195</ele>
        <time>2010-10-10T11:19:57Z</time>
      </trkpt>
      <trkpt lat="43.37048" lon="5.50072">
        <ele>250.057892</ele>
        <time>2010-10-10T11:20:05Z</time>
      </trkpt>
      <trkpt lat="43.37047" lon="5.5005">
        <ele>255.271729</ele>
        <time>2010-10-10T11:20:14Z</time>
      </trkpt>
      <trkpt lat="43.37028" lon="5.50035">
        <ele>258.376038</ele>
        <time>2010-10-10T11:20:33Z</time>
      </trkpt>
      <trkpt lat="43.37013" lon="5.5003">
        <ele>259.922455</ele>
        <time>2010-10-10T11:20:41Z</time>
      </trkpt>
      <trkpt lat="43.36993" lon="5.50028">
        <ele>261.052887</ele>
        <time>2010-10-10T11:20:51Z</time>
      </trkpt>
      <trkpt lat="43.36977" lon="5.50027">
        <ele>263.513458</ele>
        <time>2010-10-10T11:20:59Z</time>
      </trkpt>
      <trkpt lat="43.36963" lon="5.50022">
        <ele>266.626495</ele>
        <time>2010-10-10T11:21:09Z</time>
      </trkpt>
      <trkpt lat="43.36947" lon="5.50023">
        <ele>267.500671</ele>
        <time>2010-10-10T11:21:20Z</time>
      </trkpt>
      <trkpt lat="43.36933" lon="5.50027">
        <ele>266.330566</ele>
        <time>2010-10-10T11:21:28Z</time>
      </trkpt>
      <trkpt lat="43.36898" lon="5.50017">
        <ele>267.169556</ele>
        <time>2010-10-10T11:21:46Z</time>
      </trkpt>
      <trkpt lat="43.36897" lon="5.49997">
        <ele>271.464844</ele>
        <time>2010-10-10T11:21:56Z</time>
      </trkpt>
      <trkpt lat="43.36895" lon="5.49977">
        <ele>274.279602</ele>
        <time>2010-10-10T11:22:06Z</time>
      </trkpt>
      <trkpt lat="43.36893" lon="5.49953">
        <ele>277.766907</ele>
        <time>2010-10-10T11:22:17Z</time>
      </trkpt>
      <trkpt lat="43.3689" lon="5.49932">
        <ele>280.829742</ele>
        <time>2010-10-10T11:22:27Z</time>
      </trkpt>
      <trkpt lat="43.36875" lon="5.49922">
        <ele>280.612396</ele>
        <time>2010-10-10T11:22:40Z</time>
      </trkpt>
      <trkpt lat="43.36862" lon="5.49925">
        <ele>278.980499</ele>
        <time>2010-10-10T11:22:48Z</time>
      </trkpt>
      <trkpt lat="43.36847" lon="5.4993">
        <ele>279.833618</ele>
        <time>2010-10-10T11:22:56Z</time>
      </trkpt>
      <trkpt lat="43.36833" lon="5.49938">
        <ele>280.249237</ele>
        <time>2010-10-10T11:23:02Z</time>
      </trkpt>
      <trkpt lat="43.36822" lon="5.49953">
        <ele>278.945435</ele>
        <time>2010-10-10T11:23:10Z</time>
      </trkpt>
      <trkpt lat="43.36807" lon="5.49968">
        <ele>277.882111</ele>
        <time>2010-10-10T11:23:18Z</time>
      </trkpt>
      <trkpt lat="43.36792" lon="5.49967">
        <ele>279.659271</ele>
        <time>2010-10-10T11:23:27Z</time>
      </trkpt>
      <trkpt lat="43.36788" lon="5.49948">
        <ele>281.959534</ele>
        <time>2010-10-10T11:23:33Z</time>
      </trkpt>
      <trkpt lat="43.36797" lon="5.49933">
        <ele>283.361633</ele>
        <time>2010-10-10T11:23:39Z</time>
      </trkpt>
      <trkpt lat="43.3681" lon="5.49918">
        <ele>283.39151</ele>
        <time>2010-10-10T11:23:47Z</time>
      </trkpt>
      <trkpt lat="43.36822" lon="5.49905">
        <ele>283.814178</ele>
        <time>2010-10-10T11:23:55Z</time>
      </trkpt>
      <trkpt lat="43.36853" lon="5.49868">
        <ele>286.895294</ele>
        <time>2010-10-10T11:24:17Z</time>
      </trkpt>
      <trkpt lat="43.36865" lon="5.49858">
        <ele>288.768707</ele>
        <time>2010-10-10T11:24:26Z</time>
      </trkpt>
      <trkpt lat="43.36882" lon="5.49858">
        <ele>290.750153</ele>
        <time>2010-10-10T11:24:36Z</time>
      </trkpt>
      <trkpt lat="43.36897" lon="5.49857">
        <ele>292.842407</ele>
        <time>2010-10-10T11:24:44Z</time>
      </trkpt>
      <trkpt lat="43.3691" lon="5.49853">
        <ele>295.11438</ele>
        <time>2010-10-10T11:24:52Z</time>
      </trkpt>
      <trkpt lat="43.36925" lon="5.49853">
        <ele>297.135651</ele>
        <time>2010-10-10T11:25:00Z</time>
      </trkpt>
      <trkpt lat="43.3694" lon="5.49848">
        <ele>299.665955</ele>
        <time>2010-10-10T11:25:08Z</time>
      </trkpt>
      <trkpt lat="43.36953" lon="5.49852">
        <ele>300.950928</ele>
        <time>2010-10-10T11:25:16Z</time>
      </trkpt>
      <trkpt lat="43.36963" lon="5.49865">
        <ele>300.995575</ele>
        <time>2010-10-10T11:25:24Z</time>
      </trkpt>
      <trkpt lat="43.36975" lon="5.49878">
        <ele>300.985504</ele>
        <time>2010-10-10T11:25:32Z</time>
      </trkpt>
      <trkpt lat="43.3699" lon="5.49882">
        <ele>302.048431</ele>
        <time>2010-10-10T11:25:40Z</time>
      </trkpt>
      <trkpt lat="43.37005" lon="5.49875">
        <ele>303.154175</ele>
        <time>2010-10-10T11:25:48Z</time>
      </trkpt>
      <trkpt lat="43.37018" lon="5.49867">
        <ele>302.888733</ele>
        <time>2010-10-10T11:25:55Z</time>
      </trkpt>
      <trkpt lat="43.3703" lon="5.49857">
        <ele>303.762451</ele>
        <time>2010-10-10T11:26:02Z</time>
      </trkpt>
      <trkpt lat="43.37042" lon="5.4984">
        <ele>306.881317</ele>
        <time>2010-10-10T11:26:11Z</time>
      </trkpt>
      <trkpt lat="43.37052" lon="5.49827">
        <ele>309.790192</ele>
        <time>2010-10-10T11:26:17Z</time>
      </trkpt>
      <trkpt lat="43.37063" lon="5.49813">
        <ele>311.779205</ele>
        <time>2010-10-10T11:26:25Z</time>
      </trkpt>
      <trkpt lat="43.37075" lon="5.49803">
        <ele>313.196075</ele>
        <time>2010-10-10T11:26:33Z</time>
      </trkpt>
      <trkpt lat="43.37093" lon="5.49803">
        <ele>312.854004</ele>
        <time>2010-10-10T11:26:46Z</time>
      </trkpt>
      <trkpt lat="43.37105" lon="5.49815">
        <ele>313.03537</ele>
        <time>2010-10-10T11:26:54Z</time>
      </trkpt>
      <trkpt lat="43.37117" lon="5.49827">
        <ele>314.171906</ele>
        <time>2010-10-10T11:27:02Z</time>
      </trkpt>
      <trkpt lat="43.3713" lon="5.49835">
        <ele>316.283813</ele>
        <time>2010-10-10T11:27:10Z</time>
      </trkpt>
      <trkpt lat="43.37143" lon="5.49843">
        <ele>317.444763</ele>
        <time>2010-10-10T11:27:19Z</time>
      </trkpt>
      <trkpt lat="43.3716" lon="5.49855">
        <ele>317.388611</ele>
        <time>2010-10-10T11:27:29Z</time>
      </trkpt>
      <trkpt lat="43.37175" lon="5.49857">
        <ele>318.604736</ele>
        <time>2010-10-10T11:27:37Z</time>
      </trkpt>
      <trkpt lat="43.3719" lon="5.49852">
        <ele>319.106567</ele>
        <time>2010-10-10T11:27:40Z</time>
      </trkpt>
      <trkpt lat="43.37207" lon="5.4984">
        <ele>320.178253</ele>
        <time>2010-10-10T11:27:46Z</time>
      </trkpt>
      <trkpt lat="43.37223" lon="5.4983">
        <ele>320.962341</ele>
        <time>2010-10-10T11:27:52Z</time>
      </trkpt>
      <trkpt lat="43.3724" lon="5.49825">
        <ele>320.531586</ele>
        <time>2010-10-10T11:27:59Z</time>
      </trkpt>
      <trkpt lat="43.37258" lon="5.49822">
        <ele>320.461334</ele>
        <time>2010-10-10T11:28:05Z</time>
      </trkpt>
      <trkpt lat="43.37275" lon="5.49815">
        <ele>320.43573</ele>
        <time>2010-10-10T11:28:11Z</time>
      </trkpt>
      <trkpt lat="43.37292" lon="5.49812">
        <ele>320.818909</ele>
        <time>2010-10-10T11:28:17Z</time>
      </trkpt>
      <trkpt lat="43.37313" lon="5.49808">
        <ele>321.411469</ele>
        <time>2010-10-10T11:28:25Z</time>
      </trkpt>
      <trkpt lat="43.3733" lon="5.4981">
        <ele>323.05304</ele>
        <time>2010-10-10T11:28:33Z</time>
      </trkpt>
      <trkpt lat="43.37347" lon="5.49808">
        <ele>324.803925</ele>
        <time>2010-10-10T11:28:41Z</time>
      </trkpt>
      <trkpt lat="43.37368" lon="5.498">
        <ele>326.271454</ele>
        <time>2010-10-10T11:28:52Z</time>
      </trkpt>
      <trkpt lat="43.37383" lon="5.498">
        <ele>327.527893</ele>
        <time>2010-10-10T11:28:58Z</time>
      </trkpt>
      <trkpt lat="43.37405" lon="5.49803">
        <ele>329.729553</ele>
        <time>2010-10-10T11:29:10Z</time>
      </trkpt>
      <trkpt lat="43.3742" lon="5.49807">
        <ele>331.344971</ele>
        <time>2010-10-10T11:29:18Z</time>
      </trkpt>
      <trkpt lat="43.37437" lon="5.49807">
        <ele>332.616943</ele>
        <time>2010-10-10T11:29:26Z</time>
      </trkpt>
      <trkpt lat="43.37453" lon="5.49807">
        <ele>333.780579</ele>
        <time>2010-10-10T11:29:34Z</time>
      </trkpt>
      <trkpt lat="43.37467" lon="5.49813">
        <ele>335.055054</ele>
        <time>2010-10-10T11:29:43Z</time>
      </trkpt>
      <trkpt lat="43.37483" lon="5.49825">
        <ele>336.950623</ele>
        <time>2010-10-10T11:29:51Z</time>
      </trkpt>
      <trkpt lat="43.37497" lon="5.4984">
        <ele>338.910675</ele>
        <time>2010-10-10T11:30:01Z</time>
      </trkpt>
      <trkpt lat="43.37507" lon="5.49855">
        <ele>338.823517</ele>
        <time>2010-10-10T11:30:07Z</time>
      </trkpt>
      <trkpt lat="43.37535" lon="5.49897">
        <ele>339.534363</ele>
        <time>2010-10-10T11:30:26Z</time>
      </trkpt>
      <trkpt lat="43.37545" lon="5.49913">
        <ele>340.264496</ele>
        <time>2010-10-10T11:30:32Z</time>
      </trkpt>
      <trkpt lat="43.37553" lon="5.49935">
        <ele>339.433868</ele>
        <time>2010-10-10T11:30:38Z</time>
      </trkpt>
      <trkpt lat="43.3756" lon="5.49955">
        <ele>339.526062</ele>
        <time>2010-10-10T11:30:44Z</time>
      </trkpt>
      <trkpt lat="43.37568" lon="5.49973">
        <ele>340.327301</ele>
        <time>2010-10-10T11:30:51Z</time>
      </trkpt>
      <trkpt lat="43.37577" lon="5.49992">
        <ele>341.454498</ele>
        <time>2010-10-10T11:30:57Z</time>
      </trkpt>
      <trkpt lat="43.37587" lon="5.50012">
        <ele>342.515289</ele>
        <time>2010-10-10T11:31:03Z</time>
      </trkpt>
      <trkpt lat="43.376" lon="5.50023">
        <ele>342.846527</ele>
        <time>2010-10-10T11:31:09Z</time>
      </trkpt>
      <trkpt lat="43.37617" lon="5.5003">
        <ele>343.065002</ele>
        <time>2010-10-10T11:31:13Z</time>
      </trkpt>
      <trkpt lat="43.37647" lon="5.50043">
        <ele>344.368958</ele>
        <time>2010-10-10T11:31:23Z</time>
      </trkpt>
      <trkpt lat="43.37665" lon="5.50037">
        <ele>344.374298</ele>
        <time>2010-10-10T11:31:32Z</time>
      </trkpt>
      <trkpt lat="43.37677" lon="5.50027">
        <ele>343.819641</ele>
        <time>2010-10-10T11:31:36Z</time>
      </trkpt>
      <trkpt lat="43.3769" lon="5.50005">
        <ele>342.659698</ele>
        <time>2010-10-10T11:31:40Z</time>
      </trkpt>
      <trkpt lat="43.37705" lon="5.49987">
        <ele>342.302673</ele>
        <time>2010-10-10T11:31:44Z</time>
      </trkpt>
      <trkpt lat="43.37723" lon="5.49978">
        <ele>342.427246</ele>
        <time>2010-10-10T11:31:48Z</time>
      </trkpt>
      <trkpt lat="43.37737" lon="5.49972">
        <ele>341.793701</ele>
        <time>2010-10-10T11:31:54Z</time>
      </trkpt>
      <trkpt lat="43.37748" lon="5.49962">
        <ele>340.835876</ele>
        <time>2010-10-10T11:33:24Z</time>
      </trkpt>
      <trkpt lat="43.37765" lon="5.49942">
        <ele>339.414307</ele>
        <time>2010-10-10T11:33:33Z</time>
      </trkpt>
      <trkpt lat="43.3775" lon="5.49918">
        <ele>335.593994</ele>
        <time>2010-10-10T11:33:39Z</time>
      </trkpt>
      <trkpt lat="43.37743" lon="5.49902">
        <ele>333.130066</ele>
        <time>2010-10-10T11:33:42Z</time>
      </trkpt>
      <trkpt lat="43.37738" lon="5.49883">
        <ele>330.237915</ele>
        <time>2010-10-10T11:33:45Z</time>
      </trkpt>
      <trkpt lat="43.37732" lon="5.4985">
        <ele>324.684113</ele>
        <time>2010-10-10T11:33:52Z</time>
      </trkpt>
      <trkpt lat="43.37737" lon="5.4983">
        <ele>322.970215</ele>
        <time>2010-10-10T11:34:03Z</time>
      </trkpt>
      <trkpt lat="43.3774" lon="5.49812">
        <ele>321.219666</ele>
        <time>2010-10-10T11:34:10Z</time>
      </trkpt>
      <trkpt lat="43.37735" lon="5.4979">
        <ele>317.737701</ele>
        <time>2010-10-10T11:34:40Z</time>
      </trkpt>
      <trkpt lat="43.37735" lon="5.49767">
        <ele>315.43042</ele>
        <time>2010-10-10T11:34:44Z</time>
      </trkpt>
      <trkpt lat="43.37728" lon="5.4975">
        <ele>312.35791</ele>
        <time>2010-10-10T11:34:47Z</time>
      </trkpt>
      <trkpt lat="43.37722" lon="5.49733">
        <ele>309.436676</ele>
        <time>2010-10-10T11:34:50Z</time>
      </trkpt>
      <trkpt lat="43.37707" lon="5.49703">
        <ele>305.040253</ele>
        <time>2010-10-10T11:34:56Z</time>
      </trkpt>
      <trkpt lat="43.37697" lon="5.49678">
        <ele>301.846527</ele>
        <time>2010-10-10T11:35:03Z</time>
      </trkpt>
      <trkpt lat="43.37683" lon="5.49673">
        <ele>300.274963</ele>
        <time>2010-10-10T11:35:09Z</time>
      </trkpt>
      <trkpt lat="43.3766" lon="5.4967">
        <ele>300.186371</ele>
        <time>2010-10-10T11:35:15Z</time>
      </trkpt>
      <trkpt lat="43.37628" lon="5.49663">
        <ele>300.87912</ele>
        <time>2010-10-10T11:35:22Z</time>
      </trkpt>
      <trkpt lat="43.37612" lon="5.49657">
        <ele>301.650879</ele>
        <time>2010-10-10T11:35:25Z</time>
      </trkpt>
      <trkpt lat="43.376" lon="5.49643">
        <ele>301.497559</ele>
        <time>2010-10-10T11:35:28Z</time>
      </trkpt>
      <trkpt lat="43.37592" lon="5.49628">
        <ele>300.442139</ele>
        <time>2010-10-10T11:35:32Z</time>
      </trkpt>
      <trkpt lat="43.37582" lon="5.49603">
        <ele>299.020233</ele>
        <time>2010-10-10T11:35:35Z</time>
      </trkpt>
      <trkpt lat="43.37563" lon="5.49572">
        <ele>298.814697</ele>
        <time>2010-10-10T11:35:41Z</time>
      </trkpt>
      <trkpt lat="43.37535" lon="5.49558">
        <ele>297.139221</ele>
        <time>2010-10-10T11:35:47Z</time>
      </trkpt>
      <trkpt lat="43.37515" lon="5.49555">
        <ele>295.339447</ele>
        <time>2010-10-10T11:35:49Z</time>
      </trkpt>
      <trkpt lat="43.37498" lon="5.49555">
        <ele>293.957001</ele>
        <time>2010-10-10T11:35:52Z</time>
      </trkpt>
      <trkpt lat="43.37482" lon="5.49555">
        <ele>292.432251</ele>
        <time>2010-10-10T11:35:55Z</time>
      </trkpt>
      <trkpt lat="43.37467" lon="5.49557">
        <ele>291.067261</ele>
        <time>2010-10-10T11:35:58Z</time>
      </trkpt>
      <trkpt lat="43.37428" lon="5.49558">
        <ele>289.975891</ele>
        <time>2010-10-10T11:36:07Z</time>
      </trkpt>
      <trkpt lat="43.37415" lon="5.49553">
        <ele>290.21106</ele>
        <time>2010-10-10T11:36:09Z</time>
      </trkpt>
      <trkpt lat="43.3739" lon="5.49555">
        <ele>287.597107</ele>
        <time>2010-10-10T11:36:16Z</time>
      </trkpt>
      <trkpt lat="43.37363" lon="5.49553">
        <ele>284.755188</ele>
        <time>2010-10-10T11:36:22Z</time>
      </trkpt>
      <trkpt lat="43.37347" lon="5.49547">
        <ele>282.197601</ele>
        <time>2010-10-10T11:36:25Z</time>
      </trkpt>
      <trkpt lat="43.37328" lon="5.49522">
        <ele>278.286835</ele>
        <time>2010-10-10T11:36:32Z</time>
      </trkpt>
      <trkpt lat="43.37302" lon="5.49485">
        <ele>276.817444</ele>
        <time>2010-10-10T11:36:38Z</time>
      </trkpt>
      <trkpt lat="43.37297" lon="5.49465">
        <ele>274.82373</ele>
        <time>2010-10-10T11:36:41Z</time>
      </trkpt>
      <trkpt lat="43.3729" lon="5.49445">
        <ele>271.876282</ele>
        <time>2010-10-10T11:36:44Z</time>
      </trkpt>
      <trkpt lat="43.37282" lon="5.49415">
        <ele>268.31131</ele>
        <time>2010-10-10T11:36:50Z</time>
      </trkpt>
      <trkpt lat="43.37273" lon="5.49395">
        <ele>270.183472</ele>
        <time>2010-10-10T11:36:53Z</time>
      </trkpt>
      <trkpt lat="43.37263" lon="5.49377">
        <ele>271.796509</ele>
        <time>2010-10-10T11:36:59Z</time>
      </trkpt>
      <trkpt lat="43.37252" lon="5.49357">
        <ele>270.243683</ele>
        <time>2010-10-10T11:37:05Z</time>
      </trkpt>
      <trkpt lat="43.3724" lon="5.49345">
        <ele>266.863403</ele>
        <time>2010-10-10T11:37:14Z</time>
      </trkpt>
      <trkpt lat="43.37227" lon="5.49333">
        <ele>266.129883</ele>
        <time>2010-10-10T11:37:20Z</time>
      </trkpt>
      <trkpt lat="43.37205" lon="5.49328">
        <ele>263.915283</ele>
        <time>2010-10-10T11:37:27Z</time>
      </trkpt>
      <trkpt lat="43.37178" lon="5.49318">
        <ele>262.679718</ele>
        <time>2010-10-10T11:37:34Z</time>
      </trkpt>
      <trkpt lat="43.37158" lon="5.49303">
        <ele>260.860565</ele>
        <time>2010-10-10T11:37:40Z</time>
      </trkpt>
      <trkpt lat="43.37152" lon="5.49285">
        <ele>258.447418</ele>
        <time>2010-10-10T11:37:46Z</time>
      </trkpt>
      <trkpt lat="43.37155" lon="5.49258">
        <ele>256.628601</ele>
        <time>2010-10-10T11:37:51Z</time>
      </trkpt>
      <trkpt lat="43.3715" lon="5.49228">
        <ele>255.610489</ele>
        <time>2010-10-10T11:37:56Z</time>
      </trkpt>
      <trkpt lat="43.37142" lon="5.49207">
        <ele>256.078949</ele>
        <time>2010-10-10T11:38:01Z</time>
      </trkpt>
      <trkpt lat="43.37132" lon="5.49193">
        <ele>256.492523</ele>
        <time>2010-10-10T11:38:06Z</time>
      </trkpt>
      <trkpt lat="43.37122" lon="5.4918">
        <ele>255.660187</ele>
        <time>2010-10-10T11:38:11Z</time>
      </trkpt>
      <trkpt lat="43.37112" lon="5.49158">
        <ele>251.977478</ele>
        <time>2010-10-10T11:38:17Z</time>
      </trkpt>
      <trkpt lat="43.371" lon="5.4913">
        <ele>252.484329</ele>
        <time>2010-10-10T11:38:25Z</time>
      </trkpt>
      <trkpt lat="43.37083" lon="5.49113">
        <ele>251.806824</ele>
        <time>2010-10-10T11:38:30Z</time>
      </trkpt>
      <trkpt lat="43.3705" lon="5.49082">
        <ele>243.534744</ele>
        <time>2010-10-10T11:38:38Z</time>
      </trkpt>
      <trkpt lat="43.37033" lon="5.49068">
        <ele>248.173141</ele>
        <time>2010-10-10T11:38:44Z</time>
      </trkpt>
      <trkpt lat="43.37015" lon="5.49057">
        <ele>251.347809</ele>
        <time>2010-10-10T11:38:49Z</time>
      </trkpt>
      <trkpt lat="43.36998" lon="5.49063">
        <ele>246.198608</ele>
        <time>2010-10-10T11:38:54Z</time>
      </trkpt>
      <trkpt lat="43.36982" lon="5.49077">
        <ele>240.027496</ele>
        <time>2010-10-10T11:38:59Z</time>
      </trkpt>
      <trkpt lat="43.36963" lon="5.49072">
        <ele>239.952103</ele>
        <time>2010-10-10T11:39:04Z</time>
      </trkpt>
      <trkpt lat="43.36947" lon="5.49062">
        <ele>240.3685</ele>
        <time>2010-10-10T11:39:09Z</time>
      </trkpt>
      <trkpt lat="43.36928" lon="5.49047">
        <ele>240.431854</ele>
        <time>2010-10-10T11:39:15Z</time>
      </trkpt>
      <trkpt lat="43.36917" lon="5.49035">
        <ele>240.311707</ele>
        <time>2010-10-10T11:39:17Z</time>
      </trkpt>
      <trkpt lat="43.36898" lon="5.49022">
        <ele>238.35968</ele>
        <time>2010-10-10T11:39:22Z</time>
      </trkpt>
      <trkpt lat="43.36878" lon="5.4902">
        <ele>237.787247</ele>
        <time>2010-10-10T11:39:28Z</time>
      </trkpt>
      <trkpt lat="43.36858" lon="5.49025">
        <ele>238.147537</ele>
        <time>2010-10-10T11:39:33Z</time>
      </trkpt>
      <trkpt lat="43.36845" lon="5.49033">
        <ele>236.913071</ele>
        <time>2010-10-10T11:39:36Z</time>
      </trkpt>
      <trkpt lat="43.36833" lon="5.49047">
        <ele>237.453995</ele>
        <time>2010-10-10T11:39:38Z</time>
      </trkpt>
      <trkpt lat="43.36818" lon="5.49075">
        <ele>235.790695</ele>
        <time>2010-10-10T11:39:44Z</time>
      </trkpt>
      <trkpt lat="43.3681" lon="5.49105">
        <ele>233.639587</ele>
        <time>2010-10-10T11:39:49Z</time>
      </trkpt>
      <trkpt lat="43.368" lon="5.49133">
        <ele>229.959183</ele>
        <time>2010-10-10T11:39:55Z</time>
      </trkpt>
      <trkpt lat="43.36792" lon="5.49148">
        <ele>229.983505</ele>
        <time>2010-10-10T11:39:57Z</time>
      </trkpt>
      <trkpt lat="43.36777" lon="5.49165">
        <ele>230.577515</ele>
        <time>2010-10-10T11:40:03Z</time>
      </trkpt>
      <trkpt lat="43.36758" lon="5.49173">
        <ele>230.984955</ele>
        <time>2010-10-10T11:40:08Z</time>
      </trkpt>
      <trkpt lat="43.36738" lon="5.49185">
        <ele>228.350433</ele>
        <time>2010-10-10T11:40:16Z</time>
      </trkpt>
      <trkpt lat="43.36722" lon="5.49183">
        <ele>228.765686</ele>
        <time>2010-10-10T11:40:21Z</time>
      </trkpt>
      <trkpt lat="43.36705" lon="5.49182">
        <ele>229.265121</ele>
        <time>2010-10-10T11:40:27Z</time>
      </trkpt>
      <trkpt lat="43.36688" lon="5.49188">
        <ele>227.71582</ele>
        <time>2010-10-10T11:40:31Z</time>
      </trkpt>
      <trkpt lat="43.36673" lon="5.49202">
        <ele>224.450241</ele>
        <time>2010-10-10T11:40:37Z</time>
      </trkpt>
      <trkpt lat="43.36665" lon="5.49217">
        <ele>219.869492</ele>
        <time>2010-10-10T11:40:46Z</time>
      </trkpt>
      <trkpt lat="43.3665" lon="5.49217">
        <ele>219.923645</ele>
        <time>2010-10-10T11:40:54Z</time>
      </trkpt>
      <trkpt lat="43.36632" lon="5.49223">
        <ele>218.123093</ele>
        <time>2010-10-10T11:41:03Z</time>
      </trkpt>
      <trkpt lat="43.36617" lon="5.49235">
        <ele>214.796967</ele>
        <time>2010-10-10T11:41:11Z</time>
      </trkpt>
      <trkpt lat="43.36607" lon="5.49248">
        <ele>211.582001</ele>
        <time>2010-10-10T11:41:19Z</time>
      </trkpt>
      <trkpt lat="43.36598" lon="5.49263">
        <ele>209.000763</ele>
        <time>2010-10-10T11:41:30Z</time>
      </trkpt>
      <trkpt lat="43.36587" lon="5.49273">
        <ele>206.670959</ele>
        <time>2010-10-10T11:41:36Z</time>
      </trkpt>
      <trkpt lat="43.36568" lon="5.4928">
        <ele>204.092987</ele>
        <time>2010-10-10T11:41:42Z</time>
      </trkpt>
      <trkpt lat="43.36547" lon="5.49288">
        <ele>201.53862</ele>
        <time>2010-10-10T11:41:48Z</time>
      </trkpt>
      <trkpt lat="43.36533" lon="5.493">
        <ele>199.043396</ele>
        <time>2010-10-10T11:41:52Z</time>
      </trkpt>
      <trkpt lat="43.36523" lon="5.49322">
        <ele>200.709473</ele>
        <time>2010-10-10T11:41:58Z</time>
      </trkpt>
      <trkpt lat="43.3651" lon="5.49333">
        <ele>201.321503</ele>
        <time>2010-10-10T11:42:03Z</time>
      </trkpt>
      <trkpt lat="43.36495" lon="5.49328">
        <ele>200.450562</ele>
        <time>2010-10-10T11:42:09Z</time>
      </trkpt>
      <trkpt lat="43.36473" lon="5.4932">
        <ele>198.811386</ele>
        <time>2010-10-10T11:42:14Z</time>
      </trkpt>
      <trkpt lat="43.36428" lon="5.493">
        <ele>195.033218</ele>
        <time>2010-10-10T11:43:40Z</time>
      </trkpt>
      <trkpt lat="43.36405" lon="5.4931">
        <ele>194.228638</ele>
        <time>2010-10-10T11:43:47Z</time>
      </trkpt>
      <trkpt lat="43.36388" lon="5.4932">
        <ele>192.221252</ele>
        <time>2010-10-10T11:43:53Z</time>
      </trkpt>
      <trkpt lat="43.36363" lon="5.49335">
        <ele>190.201904</ele>
        <time>2010-10-10T11:44:02Z</time>
      </trkpt>
      <trkpt lat="43.3634" lon="5.49337">
        <ele>190.017441</ele>
        <time>2010-10-10T11:44:08Z</time>
      </trkpt>
      <trkpt lat="43.3632" lon="5.49337">
        <ele>189.018799</ele>
        <time>2010-10-10T11:44:13Z</time>
      </trkpt>
      <trkpt lat="43.36297" lon="5.49338">
        <ele>187.484192</ele>
        <time>2010-10-10T11:44:20Z</time>
      </trkpt>
      <trkpt lat="43.36283" lon="5.49335">
        <ele>186.560165</ele>
        <time>2010-10-10T11:44:22Z</time>
      </trkpt>
      <trkpt lat="43.36268" lon="5.49332">
        <ele>185.410278</ele>
        <time>2010-10-10T11:44:25Z</time>
      </trkpt>
      <trkpt lat="43.36232" lon="5.49345">
        <ele>180.248596</ele>
        <time>2010-10-10T11:44:31Z</time>
      </trkpt>
      <trkpt lat="43.36172" lon="5.49367">
        <ele>177.73526</ele>
        <time>2010-10-10T11:44:41Z</time>
      </trkpt>
      <trkpt lat="43.36158" lon="5.49373">
        <ele>177.475296</ele>
        <time>2010-10-10T11:44:45Z</time>
      </trkpt>
      <trkpt lat="43.36137" lon="5.49377">
        <ele>177.201324</ele>
        <time>2010-10-10T11:44:51Z</time>
      </trkpt>
      <trkpt lat="43.36115" lon="5.49383">
        <ele>176.994339</ele>
        <time>2010-10-10T11:44:54Z</time>
      </trkpt>
      <trkpt lat="43.36077" lon="5.49397">
        <ele>175.384216</ele>
        <time>2010-10-10T11:45:00Z</time>
      </trkpt>
      <trkpt lat="43.36042" lon="5.49407">
        <ele>175.710388</ele>
        <time>2010-10-10T11:45:06Z</time>
      </trkpt>
      <trkpt lat="43.36018" lon="5.49405">
        <ele>176.299484</ele>
        <time>2010-10-10T11:45:09Z</time>
      </trkpt>
      <trkpt lat="43.35995" lon="5.49402">
        <ele>176.83844</ele>
        <time>2010-10-10T11:45:11Z</time>
      </trkpt>
      <trkpt lat="43.35972" lon="5.49397">
        <ele>177.327667</ele>
        <time>2010-10-10T11:45:14Z</time>
      </trkpt>
      <trkpt lat="43.3595" lon="5.49388">
        <ele>177.692932</ele>
        <time>2010-10-10T11:45:17Z</time>
      </trkpt>
      <trkpt lat="43.35937" lon="5.4938">
        <ele>177.977448</ele>
        <time>2010-10-10T11:45:20Z</time>
      </trkpt>
      <trkpt lat="43.35922" lon="5.49368">
        <ele>177.340591</ele>
        <time>2010-10-10T11:45:22Z</time>
      </trkpt>
      <trkpt lat="43.35903" lon="5.4935">
        <ele>175.839157</ele>
        <time>2010-10-10T11:45:24Z</time>
      </trkpt>
      <trkpt lat="43.35887" lon="5.49328">
        <ele>174.044968</ele>
        <time>2010-10-10T11:45:27Z</time>
      </trkpt>
      <trkpt lat="43.35872" lon="5.49305">
        <ele>174.187439</ele>
        <time>2010-10-10T11:45:30Z</time>
      </trkpt>
      <trkpt lat="43.3586" lon="5.49278">
        <ele>174.198578</ele>
        <time>2010-10-10T11:45:33Z</time>
      </trkpt>
      <trkpt lat="43.3578" lon="5.49102">
        <ele>166.392258</ele>
        <time>2010-10-10T11:45:54Z</time>
      </trkpt>
      <trkpt lat="43.3576" lon="5.49055">
        <ele>162.623657</ele>
        <time>2010-10-10T11:46:01Z</time>
      </trkpt>
      <trkpt lat="43.35753" lon="5.49028">
        <ele>162.58992</ele>
        <time>2010-10-10T11:46:03Z</time>
      </trkpt>
      <trkpt lat="43.35745" lon="5.48985">
        <ele>161.795105</ele>
        <time>2010-10-10T11:46:08Z</time>
      </trkpt>
      <trkpt lat="43.35728" lon="5.48838">
        <ele>160.159393</ele>
        <time>2010-10-10T11:46:26Z</time>
      </trkpt>
      <trkpt lat="43.35728" lon="5.48817">
        <ele>160.40239</ele>
        <time>2010-10-10T11:46:29Z</time>
      </trkpt>
      <trkpt lat="43.35715" lon="5.48807">
        <ele>160.431808</ele>
        <time>2010-10-10T11:46:32Z</time>
      </trkpt>
      <trkpt lat="43.35698" lon="5.48795">
        <ele>160.327423</ele>
        <time>2010-10-10T11:46:35Z</time>
      </trkpt>
      <trkpt lat="43.35682" lon="5.48775">
        <ele>160.008072</ele>
        <time>2010-10-10T11:46:39Z</time>
      </trkpt>
      <trkpt lat="43.35663" lon="5.48752">
        <ele>159.933655</ele>
        <time>2010-10-10T11:46:42Z</time>
      </trkpt>
      <trkpt lat="43.3562" lon="5.48693">
        <ele>158.975891</ele>
        <time>2010-10-10T11:46:50Z</time>
      </trkpt>
      <trkpt lat="43.35607" lon="5.48667">
        <ele>158.633179</ele>
        <time>2010-10-10T11:46:55Z</time>
      </trkpt>
      <trkpt lat="43.3559" lon="5.48658">
        <ele>158.40657</ele>
        <time>2010-10-10T11:46:58Z</time>
      </trkpt>
      <trkpt lat="43.35573" lon="5.48648">
        <ele>158.259155</ele>
        <time>2010-10-10T11:47:02Z</time>
      </trkpt>
      <trkpt lat="43.35535" lon="5.48623">
        <ele>158.352753</ele>
        <time>2010-10-10T11:47:08Z</time>
      </trkpt>
      <trkpt lat="43.35482" lon="5.48583">
        <ele>158.721207</ele>
        <time>2010-10-10T11:47:17Z</time>
      </trkpt>
      <trkpt lat="43.35463" lon="5.48558">
        <ele>158.930176</ele>
        <time>2010-10-10T11:47:20Z</time>
      </trkpt>
      <trkpt lat="43.3545" lon="5.4852">
        <ele>158.641434</ele>
        <time>2010-10-10T11:47:25Z</time>
      </trkpt>
      <trkpt lat="43.35443" lon="5.48487">
        <ele>158.642899</ele>
        <time>2010-10-10T11:47:31Z</time>
      </trkpt>
      <trkpt lat="43.35438" lon="5.48458">
        <ele>158.897644</ele>
        <time>2010-10-10T11:47:36Z</time>
      </trkpt>
      <trkpt lat="43.35422" lon="5.48457">
        <ele>159</ele>
        <time>2010-10-10T11:47:38Z</time>
      </trkpt>
      <trkpt lat="43.35408" lon="5.48452">
        <ele>159</ele>
        <time>2010-10-10T11:47:41Z</time>
      </trkpt>
      <trkpt lat="43.3539" lon="5.48442">
        <ele>159</ele>
        <time>2010-10-10T11:47:43Z</time>
      </trkpt>
      <trkpt lat="43.35358" lon="5.4842">
        <ele>159.275726</ele>
        <time>2010-10-10T11:47:48Z</time>
      </trkpt>
      <trkpt lat="43.35342" lon="5.48402">
        <ele>159.170807</ele>
        <time>2010-10-10T11:47:51Z</time>
      </trkpt>
      <trkpt lat="43.35332" lon="5.48388">
        <ele>158.927902</ele>
        <time>2010-10-10T11:47:54Z</time>
      </trkpt>
      <trkpt lat="43.35318" lon="5.48367">
        <ele>158.584976</ele>
        <time>2010-10-10T11:47:56Z</time>
      </trkpt>
      <trkpt lat="43.35305" lon="5.48345">
        <ele>158.012604</ele>
        <time>2010-10-10T11:47:59Z</time>
      </trkpt>
      <trkpt lat="43.35298" lon="5.48327">
        <ele>157.535629</ele>
        <time>2010-10-10T11:48:01Z</time>
      </trkpt>
      <trkpt lat="43.3529" lon="5.48308">
        <ele>156.994431</ele>
        <time>2010-10-10T11:48:04Z</time>
      </trkpt>
      <trkpt lat="43.35285" lon="5.48287">
        <ele>156.709091</ele>
        <time>2010-10-10T11:48:14Z</time>
      </trkpt>
      <trkpt lat="43.3528" lon="5.48268">
        <ele>156.54715</ele>
        <time>2010-10-10T11:48:22Z</time>
      </trkpt>
      <trkpt lat="43.35272" lon="5.4823">
        <ele>156.637283</ele>
        <time>2010-10-10T11:48:30Z</time>
      </trkpt>
      <trkpt lat="43.35268" lon="5.48212">
        <ele>156.820068</ele>
        <time>2010-10-10T11:48:32Z</time>
      </trkpt>
      <trkpt lat="43.35258" lon="5.48183">
        <ele>157.001022</ele>
        <time>2010-10-10T11:48:37Z</time>
      </trkpt>
      <trkpt lat="43.35253" lon="5.48158">
        <ele>157.014832</ele>
        <time>2010-10-10T11:48:40Z</time>
      </trkpt>
      <trkpt lat="43.35247" lon="5.48132">
        <ele>157.021408</ele>
        <time>2010-10-10T11:48:42Z</time>
      </trkpt>
      <trkpt lat="43.35213" lon="5.47975">
        <ele>154.343185</ele>
        <time>2010-10-10T11:49:00Z</time>
      </trkpt>
      <trkpt lat="43.3521" lon="5.47943">
        <ele>153.207489</ele>
        <time>2010-10-10T11:49:02Z</time>
      </trkpt>
      <trkpt lat="43.35208" lon="5.47923">
        <ele>152.701904</ele>
        <time>2010-10-10T11:49:05Z</time>
      </trkpt>
      <trkpt lat="43.35202" lon="5.47793">
        <ele>150.365494</ele>
        <time>2010-10-10T11:49:17Z</time>
      </trkpt>
      <trkpt lat="43.35197" lon="5.47705">
        <ele>148.767899</ele>
        <time>2010-10-10T11:49:27Z</time>
      </trkpt>
      <trkpt lat="43.35173" lon="5.47303">
        <ele>143.107956</ele>
        <time>2010-10-10T11:50:08Z</time>
      </trkpt>
      <trkpt lat="43.35167" lon="5.47277">
        <ele>142.611343</ele>
        <time>2010-10-10T11:50:11Z</time>
      </trkpt>
      <trkpt lat="43.3516" lon="5.47258">
        <ele>142.130951</ele>
        <time>2010-10-10T11:50:14Z</time>
      </trkpt>
      <trkpt lat="43.35152" lon="5.47243">
        <ele>141.848221</ele>
        <time>2010-10-10T11:50:16Z</time>
      </trkpt>
      <trkpt lat="43.35138" lon="5.4722">
        <ele>141.798355</ele>
        <time>2010-10-10T11:50:18Z</time>
      </trkpt>
      <trkpt lat="43.35128" lon="5.47207">
        <ele>141.586288</ele>
        <time>2010-10-10T11:50:21Z</time>
      </trkpt>
      <trkpt lat="43.35115" lon="5.47187">
        <ele>141.096298</ele>
        <time>2010-10-10T11:50:23Z</time>
      </trkpt>
      <trkpt lat="43.35077" lon="5.47132">
        <ele>140.756546</ele>
        <time>2010-10-10T11:50:31Z</time>
      </trkpt>
      <trkpt lat="43.3506" lon="5.47113">
        <ele>140.507874</ele>
        <time>2010-10-10T11:50:34Z</time>
      </trkpt>
      <trkpt lat="43.35005" lon="5.47048">
        <ele>139.989639</ele>
        <time>2010-10-10T11:50:46Z</time>
      </trkpt>
      <trkpt lat="43.34992" lon="5.47028">
        <ele>139.996216</ele>
        <time>2010-10-10T11:50:48Z</time>
      </trkpt>
      <trkpt lat="43.3498" lon="5.47012">
        <ele>139.976013</ele>
        <time>2010-10-10T11:50:51Z</time>
      </trkpt>
      <trkpt lat="43.34958" lon="5.46977">
        <ele>139.648438</ele>
        <time>2010-10-10T11:50:57Z</time>
      </trkpt>
      <trkpt lat="43.34948" lon="5.46955">
        <ele>139.261612</ele>
        <time>2010-10-10T11:50:59Z</time>
      </trkpt>
      <trkpt lat="43.34933" lon="5.46918">
        <ele>138.348068</ele>
        <time>2010-10-10T11:51:04Z</time>
      </trkpt>
      <trkpt lat="43.34928" lon="5.4688">
        <ele>137.980026</ele>
        <time>2010-10-10T11:51:09Z</time>
      </trkpt>
      <trkpt lat="43.34943" lon="5.46872">
        <ele>138.912308</ele>
        <time>2010-10-10T11:51:12Z</time>
      </trkpt>
      <trkpt lat="43.34972" lon="5.46862">
        <ele>140.234299</ele>
        <time>2010-10-10T11:51:18Z</time>
      </trkpt>
      <trkpt lat="43.35073" lon="5.46823">
        <ele>143.42305</ele>
        <time>2010-10-10T11:51:38Z</time>
      </trkpt>
      <trkpt lat="43.35093" lon="5.4682">
        <ele>144.236465</ele>
        <time>2010-10-10T11:51:41Z</time>
      </trkpt>
      <trkpt lat="43.35128" lon="5.46817">
        <ele>145.703766</ele>
        <time>2010-10-10T11:51:49Z</time>
      </trkpt>
      <trkpt lat="43.35163" lon="5.46812">
        <ele>147.112366</ele>
        <time>2010-10-10T11:51:58Z</time>
      </trkpt>
      <trkpt lat="43.35178" lon="5.46803">
        <ele>147.48764</ele>
        <time>2010-10-10T11:52:01Z</time>
      </trkpt>
      <trkpt lat="43.35195" lon="5.46792">
        <ele>147.715515</ele>
        <time>2010-10-10T11:52:07Z</time>
      </trkpt>
      <trkpt lat="43.35212" lon="5.46775">
        <ele>147.74794</ele>
        <time>2010-10-10T11:52:12Z</time>
      </trkpt>
      <trkpt lat="43.35232" lon="5.46755">
        <ele>148.127716</ele>
        <time>2010-10-10T11:52:17Z</time>
      </trkpt>
      <trkpt lat="43.35253" lon="5.46737">
        <ele>148.691055</ele>
        <time>2010-10-10T11:52:23Z</time>
      </trkpt>
      <trkpt lat="43.35272" lon="5.46725">
        <ele>149.183258</ele>
        <time>2010-10-10T11:52:28Z</time>
      </trkpt>
      <trkpt lat="43.35302" lon="5.46703">
        <ele>150.24173</ele>
        <time>2010-10-10T11:52:36Z</time>
      </trkpt>
      <trkpt lat="43.35325" lon="5.46702">
        <ele>150.872559</ele>
        <time>2010-10-10T11:52:42Z</time>
      </trkpt>
      <trkpt lat="43.35343" lon="5.46692">
        <ele>151.727707</ele>
        <time>2010-10-10T11:52:48Z</time>
      </trkpt>
      <trkpt lat="43.35362" lon="5.46665">
        <ele>153.079193</ele>
        <time>2010-10-10T11:52:54Z</time>
      </trkpt>
      <trkpt lat="43.35378" lon="5.46657">
        <ele>153.713669</ele>
        <time>2010-10-10T11:52:59Z</time>
      </trkpt>
      <trkpt lat="43.3543" lon="5.46635">
        <ele>155.561523</ele>
        <time>2010-10-10T11:53:18Z</time>
      </trkpt>
      <trkpt lat="43.35445" lon="5.46637">
        <ele>155.77121</ele>
        <time>2010-10-10T11:57:25Z</time>
      </trkpt>
      <trkpt lat="43.35463" lon="5.4663">
        <ele>156.224747</ele>
        <time>2010-10-10T12:00:18Z</time>
      </trkpt>
      <trkpt lat="43.35482" lon="5.46635">
        <ele>156.458389</ele>
        <time>2010-10-10T12:00:24Z</time>
      </trkpt>
      <trkpt lat="43.3554" lon="5.46647">
        <ele>157.973938</ele>
        <time>2010-10-10T12:00:42Z</time>
      </trkpt>
      <trkpt lat="43.35562" lon="5.4665">
        <ele>158.845322</ele>
        <time>2010-10-10T12:00:48Z</time>
      </trkpt>
      <trkpt lat="43.35583" lon="5.46657">
        <ele>159.832321</ele>
        <time>2010-10-10T12:00:54Z</time>
      </trkpt>
      <trkpt lat="43.3561" lon="5.46662">
        <ele>161.008987</ele>
        <time>2010-10-10T12:01:03Z</time>
      </trkpt>
      <trkpt lat="43.35643" lon="5.46667">
        <ele>163.307739</ele>
        <time>2010-10-10T12:01:12Z</time>
      </trkpt>
      <trkpt lat="43.35658" lon="5.46665">
        <ele>164.15181</ele>
        <time>2010-10-10T12:01:15Z</time>
      </trkpt>
      <trkpt lat="43.3568" lon="5.46657">
        <ele>165.25914</ele>
        <time>2010-10-10T12:01:21Z</time>
      </trkpt>
      <trkpt lat="43.357" lon="5.46652">
        <ele>166.241089</ele>
        <time>2010-10-10T12:01:27Z</time>
      </trkpt>
      <trkpt lat="43.35723" lon="5.46648">
        <ele>167.349365</ele>
        <time>2010-10-10T12:01:32Z</time>
      </trkpt>
      <trkpt lat="43.35745" lon="5.46645">
        <ele>168.382019</ele>
        <time>2010-10-10T12:01:39Z</time>
      </trkpt>
      <trkpt lat="43.35767" lon="5.46647">
        <ele>169.153549</ele>
        <time>2010-10-10T12:01:45Z</time>
      </trkpt>
      <trkpt lat="43.35788" lon="5.46647">
        <ele>169.928085</ele>
        <time>2010-10-10T12:01:51Z</time>
      </trkpt>
      <trkpt lat="43.35818" lon="5.4665">
        <ele>171.247986</ele>
        <time>2010-10-10T12:01:59Z</time>
      </trkpt>
      <trkpt lat="43.35862" lon="5.46655">
        <ele>172.978958</ele>
        <time>2010-10-10T12:02:10Z</time>
      </trkpt>
      <trkpt lat="43.3588" lon="5.4665">
        <ele>173.552139</ele>
        <time>2010-10-10T12:02:16Z</time>
      </trkpt>
      <trkpt lat="43.35898" lon="5.46632">
        <ele>174.028107</ele>
        <time>2010-10-10T12:02:22Z</time>
      </trkpt>
      <trkpt lat="43.3591" lon="5.46613">
        <ele>174.486877</ele>
        <time>2010-10-10T12:02:25Z</time>
      </trkpt>
      <trkpt lat="43.3592" lon="5.46588">
        <ele>176.19429</ele>
        <time>2010-10-10T12:02:31Z</time>
      </trkpt>
      <trkpt lat="43.35943" lon="5.46553">
        <ele>179.457718</ele>
        <time>2010-10-10T12:02:42Z</time>
      </trkpt>
      <trkpt lat="43.35953" lon="5.4654">
        <ele>181.344742</ele>
        <time>2010-10-10T12:02:48Z</time>
      </trkpt>
      <trkpt lat="43.35982" lon="5.46507">
        <ele>184.683823</ele>
        <time>2010-10-10T12:03:01Z</time>
      </trkpt>
      <trkpt lat="43.36003" lon="5.4648">
        <ele>186.509933</ele>
        <time>2010-10-10T12:03:11Z</time>
      </trkpt>
      <trkpt lat="43.36017" lon="5.46463">
        <ele>186.758499</ele>
        <time>2010-10-10T12:03:16Z</time>
      </trkpt>
      <trkpt lat="43.3604" lon="5.46433">
        <ele>187.488113</ele>
        <time>2010-10-10T12:03:25Z</time>
      </trkpt>
      <trkpt lat="43.36063" lon="5.46398">
        <ele>187.408798</ele>
        <time>2010-10-10T12:03:32Z</time>
      </trkpt>
      <trkpt lat="43.36078" lon="5.46378">
        <ele>187.211731</ele>
        <time>2010-10-10T12:03:37Z</time>
      </trkpt>
      <trkpt lat="43.36087" lon="5.46353">
        <ele>187.137131</ele>
        <time>2010-10-10T12:03:43Z</time>
      </trkpt>
      <trkpt lat="43.36077" lon="5.4633">
        <ele>186.486023</ele>
        <time>2010-10-10T12:03:46Z</time>
      </trkpt>
      <trkpt lat="43.3606" lon="5.46308">
        <ele>185.950027</ele>
        <time>2010-10-10T12:03:48Z</time>
      </trkpt>
      <trkpt lat="43.3605" lon="5.46292">
        <ele>185.310577</ele>
        <time>2010-10-10T12:03:51Z</time>
      </trkpt>
      <trkpt lat="43.35945" lon="5.46108">
        <ele>177.764725</ele>
        <time>2010-10-10T12:04:11Z</time>
      </trkpt>
      <trkpt lat="43.35922" lon="5.46067">
        <ele>176.679642</ele>
        <time>2010-10-10T12:04:16Z</time>
      </trkpt>
      <trkpt lat="43.35915" lon="5.4604">
        <ele>176.660904</ele>
        <time>2010-10-10T12:04:21Z</time>
      </trkpt>
      <trkpt lat="43.3593" lon="5.46022">
        <ele>177.656815</ele>
        <time>2010-10-10T12:04:27Z</time>
      </trkpt>
      <trkpt lat="43.35947" lon="5.46002">
        <ele>179.318604</ele>
        <time>2010-10-10T12:04:37Z</time>
      </trkpt>
      <trkpt lat="43.35947" lon="5.45978">
        <ele>180.789368</ele>
        <time>2010-10-10T12:04:48Z</time>
      </trkpt>
      <trkpt lat="43.3594" lon="5.45962">
        <ele>181.156433</ele>
        <time>2010-10-10T12:04:56Z</time>
      </trkpt>
      <trkpt lat="43.35927" lon="5.45938">
        <ele>181.005905</ele>
        <time>2010-10-10T12:05:03Z</time>
      </trkpt>
      <trkpt lat="43.35905" lon="5.45922">
        <ele>179.553711</ele>
        <time>2010-10-10T12:05:09Z</time>
      </trkpt>
      <trkpt lat="43.35882" lon="5.45902">
        <ele>178.46138</ele>
        <time>2010-10-10T12:05:14Z</time>
      </trkpt>
      <trkpt lat="43.35872" lon="5.45885">
        <ele>178.177734</ele>
        <time>2010-10-10T12:05:18Z</time>
      </trkpt>
      <trkpt lat="43.3585" lon="5.4585">
        <ele>177.17128</ele>
        <time>2010-10-10T12:05:23Z</time>
      </trkpt>
      <trkpt lat="43.35843" lon="5.45828">
        <ele>177.211884</ele>
        <time>2010-10-10T12:05:27Z</time>
      </trkpt>
      <trkpt lat="43.35838" lon="5.45805">
        <ele>177.255341</ele>
        <time>2010-10-10T12:05:30Z</time>
      </trkpt>
      <trkpt lat="43.35832" lon="5.45782">
        <ele>176.64827</ele>
        <time>2010-10-10T12:05:32Z</time>
      </trkpt>
      <trkpt lat="43.35815" lon="5.45742">
        <ele>174.822296</ele>
        <time>2010-10-10T12:05:38Z</time>
      </trkpt>
      <trkpt lat="43.35783" lon="5.45663">
        <ele>172.490601</ele>
        <time>2010-10-10T12:05:46Z</time>
      </trkpt>
      <trkpt lat="43.35778" lon="5.45645">
        <ele>172.604568</ele>
        <time>2010-10-10T12:05:49Z</time>
      </trkpt>
      <trkpt lat="43.35763" lon="5.45607">
        <ele>171.983154</ele>
        <time>2010-10-10T12:05:54Z</time>
      </trkpt>
      <trkpt lat="43.35748" lon="5.45583">
        <ele>170.908936</ele>
        <time>2010-10-10T12:05:58Z</time>
      </trkpt>
      <trkpt lat="43.35737" lon="5.45565">
        <ele>170.251877</ele>
        <time>2010-10-10T12:06:00Z</time>
      </trkpt>
      <trkpt lat="43.35728" lon="5.4555">
        <ele>169.738052</ele>
        <time>2010-10-10T12:06:03Z</time>
      </trkpt>
      <trkpt lat="43.35692" lon="5.45478">
        <ele>167.153275</ele>
        <time>2010-10-10T12:06:10Z</time>
      </trkpt>
      <trkpt lat="43.35683" lon="5.45458">
        <ele>166.55867</ele>
        <time>2010-10-10T12:06:13Z</time>
      </trkpt>
      <trkpt lat="43.35658" lon="5.454">
        <ele>165.306717</ele>
        <time>2010-10-10T12:06:19Z</time>
      </trkpt>
      <trkpt lat="43.35627" lon="5.4533">
        <ele>163.842087</ele>
        <time>2010-10-10T12:06:27Z</time>
      </trkpt>
      <trkpt lat="43.35615" lon="5.45307">
        <ele>163.467316</ele>
        <time>2010-10-10T12:06:30Z</time>
      </trkpt>
      <trkpt lat="43.3557" lon="5.45212">
        <ele>159.521027</ele>
        <time>2010-10-10T12:06:43Z</time>
      </trkpt>
      <trkpt lat="43.35573" lon="5.45193">
        <ele>159.708023</ele>
        <time>2010-10-10T12:06:45Z</time>
      </trkpt>
      <trkpt lat="43.35573" lon="5.4517">
        <ele>159.807938</ele>
        <time>2010-10-10T12:06:48Z</time>
      </trkpt>
      <trkpt lat="43.35562" lon="5.45135">
        <ele>159.637421</ele>
        <time>2010-10-10T12:06:53Z</time>
      </trkpt>
      <trkpt lat="43.35538" lon="5.45107">
        <ele>158.98674</ele>
        <time>2010-10-10T12:06:58Z</time>
      </trkpt>
      <trkpt lat="43.3547" lon="5.4503">
        <ele>156.971375</ele>
        <time>2010-10-10T12:07:11Z</time>
      </trkpt>
      <trkpt lat="43.35402" lon="5.44948">
        <ele>152.889435</ele>
        <time>2010-10-10T12:07:23Z</time>
      </trkpt>
      <trkpt lat="43.35387" lon="5.4492">
        <ele>151.908905</ele>
        <time>2010-10-10T12:07:26Z</time>
      </trkpt>
      <trkpt lat="43.35375" lon="5.44885">
        <ele>151.626953</ele>
        <time>2010-10-10T12:07:29Z</time>
      </trkpt>
      <trkpt lat="43.35362" lon="5.44858">
        <ele>151.370575</ele>
        <time>2010-10-10T12:07:32Z</time>
      </trkpt>
      <trkpt lat="43.35345" lon="5.4482">
        <ele>151.528183</ele>
        <time>2010-10-10T12:07:38Z</time>
      </trkpt>
      <trkpt lat="43.35338" lon="5.448">
        <ele>151.501205</ele>
        <time>2010-10-10T12:07:40Z</time>
      </trkpt>
      <trkpt lat="43.35283" lon="5.44647">
        <ele>153.717148</ele>
        <time>2010-10-10T12:07:58Z</time>
      </trkpt>
      <trkpt lat="43.35275" lon="5.44628">
        <ele>153.90332</ele>
        <time>2010-10-10T12:08:01Z</time>
      </trkpt>
      <trkpt lat="43.35262" lon="5.44598">
        <ele>153.829971</ele>
        <time>2010-10-10T12:08:03Z</time>
      </trkpt>
      <trkpt lat="43.35248" lon="5.44557">
        <ele>152.855988</ele>
        <time>2010-10-10T12:08:08Z</time>
      </trkpt>
      <trkpt lat="43.35245" lon="5.44523">
        <ele>151.92511</ele>
        <time>2010-10-10T12:08:10Z</time>
      </trkpt>
      <trkpt lat="43.3524" lon="5.44497">
        <ele>150.793945</ele>
        <time>2010-10-10T12:08:13Z</time>
      </trkpt>
      <trkpt lat="43.3523" lon="5.44452">
        <ele>147.939529</ele>
        <time>2010-10-10T12:08:18Z</time>
      </trkpt>
      <trkpt lat="43.35213" lon="5.44428">
        <ele>145.262772</ele>
        <time>2010-10-10T12:08:23Z</time>
      </trkpt>
      <trkpt lat="43.3519" lon="5.44442">
        <ele>144.163437</ele>
        <time>2010-10-10T12:08:28Z</time>
      </trkpt>
      <trkpt lat="43.35172" lon="5.44455">
        <ele>143.818344</ele>
        <time>2010-10-10T12:08:33Z</time>
      </trkpt>
      <trkpt lat="43.35158" lon="5.44443">
        <ele>142.412704</ele>
        <time>2010-10-10T12:09:04Z</time>
      </trkpt>
      <trkpt lat="43.35155" lon="5.44422">
        <ele>141.004211</ele>
        <time>2010-10-10T12:10:59Z</time>
      </trkpt>
      <trkpt lat="43.35167" lon="5.44408">
        <ele>141.056946</ele>
        <time>2010-10-10T12:11:23Z</time>
      </trkpt>
      <trkpt lat="43.35152" lon="5.44418">
        <ele>140.703033</ele>
        <time>2010-10-10T12:11:47Z</time>
      </trkpt>
      <trkpt lat="43.35148" lon="5.44445">
        <ele>142.002869</ele>
        <time>2010-10-10T12:12:11Z</time>
      </trkpt>
      <trkpt lat="43.35152" lon="5.44425">
        <ele>141.049377</ele>
        <time>2010-10-10T12:12:15Z</time>
      </trkpt>
    </trkseg>
  </trk>
</gpx>